Observation data for Stinnett on 02/14/2020      Previous  Date  Next       Current Mesonet Observations  Soil Data  Daily Summary Page  Observations in Plain Language
KST3 140600Z 11008KT M06/M10 A3031 RMK A01 T10591101  RH  072%=      5-min Rain = 0
KST3 140601Z 10007KT M06/M10 A3031 RMK A01 T10581101  RH  072%=      5-min Rain = 0
KST3 140602Z 10007KT M06/M10 A3031 RMK A01 T10581100  RH  072%=      5-min Rain = 0
KST3 140603Z 10007KT M06/M10 A3031 RMK A01 T10581100  RH  072%=      5-min Rain = 0
KST3 140604Z 11008KT M06/M10 A3031 RMK A01 T10581101  RH  072%=      5-min Rain = 0
KST3 140605Z 11008KT M06/M10 A3031 RMK A01 T10591102  RH  072%=      5-min Rain = 0
KST3 140606Z 10008KT M06/M10 A3031 RMK A01 T10591102  RH  071%=      5-min Rain = 0
KST3 140607Z 10009KT M06/M10 A3031 RMK A01 T10591102  RH  072%=      5-min Rain = 0
KST3 140608Z 10008KT M06/M10 A3031 RMK A01 T10591102  RH  072%=      5-min Rain = 0
KST3 140609Z 10007KT M06/M10 A3031 RMK A01 T10591101  RH  072%=      5-min Rain = 0
KST3 140610Z 11008KT M06/M10 A3031 RMK A01 T10591101  RH  072%=      5-min Rain = 0
KST3 140611Z 11008KT M06/M10 A3031 RMK A01 T10591102  RH  072%=      5-min Rain = 0
KST3 140612Z 11007KT M06/M10 A3031 RMK A01 T10591103  RH  071%=      5-min Rain = 0
KST3 140613Z 10008KT M06/M10 A3031 RMK A01 T10591103  RH  071%=      5-min Rain = 0
KST3 140614Z 10008KT M06/M10 A3031 RMK A01 T10591102  RH  072%=      5-min Rain = 0
KST3 140615Z 11008KT M06/M10 A3031 RMK A01 T10591102  RH  072%=      5-min Rain = 0
KST3 140616Z 12007KT M06/M10 A3031 RMK A01 T10591102  RH  072%=      5-min Rain = 0
KST3 140617Z 12007KT M06/M10 A3031 RMK A01 T10591102  RH  072%=      5-min Rain = 0
KST3 140618Z 12007KT M06/M10 A3031 RMK A01 T10591102  RH  072%=      5-min Rain = 0
KST3 140619Z 12007KT M06/M10 A3031 RMK A01 T10591102  RH  072%=      5-min Rain = 0
KST3 140620Z 12007KT M06/M10 A3031 RMK A01 T10591102  RH  072%=      5-min Rain = 0
KST3 140621Z 12006KT M06/M10 A3031 RMK A01 T10591102  RH  072%=      5-min Rain = 0
KST3 140622Z 12007KT M06/M10 A3031 RMK A01 T10591102  RH  072%=      5-min Rain = 0
KST3 140623Z 12007KT M06/M10 A3031 RMK A01 T10591102  RH  072%=      5-min Rain = 0
KST3 140624Z 11006KT M06/M10 A3031 RMK A01 T10591102  RH  072%=      5-min Rain = 0
KST3 140625Z 10007KT M06/M10 A3031 RMK A01 T10591101  RH  072%=      5-min Rain = 0
KST3 140626Z 11007KT M06/M10 A3031 RMK A01 T10591101  RH  072%=      5-min Rain = 0
KST3 140627Z 11007KT M06/M10 A3031 RMK A01 T10591102  RH  072%=      5-min Rain = 0
KST3 140628Z 11007KT M06/M10 A3031 RMK A01 T10591102  RH  072%=      5-min Rain = 0
KST3 140629Z 12007KT M06/M10 A3031 RMK A01 T10591101  RH  072%=      5-min Rain = 0
KST3 140630Z 12006KT M06/M10 A3031 RMK A01 T10591101  RH  072%=      5-min Rain = 0
KST3 140631Z 12007KT M06/M10 A3031 RMK A01 T10591101  RH  072%=      5-min Rain = 0
KST3 140632Z 12007KT M06/M10 A3031 RMK A01 T10591102  RH  072%=      5-min Rain = 0
KST3 140633Z 12006KT M06/M10 A3031 RMK A01 T10591102  RH  072%=      5-min Rain = 0
KST3 140634Z 11007KT M06/M10 A3031 RMK A01 T10591102  RH  072%=      5-min Rain = 0
KST3 140635Z 11006KT M06/M10 A3031 RMK A01 T10591102  RH  072%=      5-min Rain = 0
KST3 140636Z 11006KT M06/M10 A3031 RMK A01 T10591102  RH  072%=      5-min Rain = 0
KST3 140637Z 11007KT M06/M10 A3031 RMK A01 T10591102  RH  072%=      5-min Rain = 0
KST3 140638Z 11007KT M06/M10 A3031 RMK A01 T10591101  RH  072%=      5-min Rain = 0
KST3 140639Z 11007KT M06/M10 A3031 RMK A01 T10591101  RH  072%=      5-min Rain = 0
KST3 140640Z 11007KT M06/M10 A3031 RMK A01 T10591102  RH  072%=      5-min Rain = 0
KST3 140641Z 11007KT M06/M10 A3031 RMK A01 T10591101  RH  072%=      5-min Rain = 0
KST3 140642Z 11006KT M06/M10 A3031 RMK A01 T10591101  RH  072%=      5-min Rain = 0
KST3 140643Z 11007KT M06/M10 A3031 RMK A01 T10591101  RH  073%=      5-min Rain = 0
KST3 140644Z 12007KT M06/M10 A3031 RMK A01 T10591100  RH  073%=      5-min Rain = 0
KST3 140645Z 11006KT M06/M10 A3031 RMK A01 T10591100  RH  073%=      5-min Rain = 0
KST3 140646Z 11005KT M06/M10 A3031 RMK A01 T10591101  RH  073%=      5-min Rain = 0
KST3 140647Z 12005KT M06/M10 A3031 RMK A01 T10591101  RH  073%=      5-min Rain = 0
KST3 140648Z 12005KT M06/M10 A3031 RMK A01 T10591100  RH  073%=      5-min Rain = 0
KST3 140649Z 13005KT M06/M10 A3031 RMK A01 T10591100  RH  072%=      5-min Rain = 0
KST3 140650Z 13006KT M06/M10 A3031 RMK A01 T10591100  RH  073%=      5-min Rain = 0
KST3 140651Z 12006KT M06/M10 A3031 RMK A01 T10591100  RH  073%=      5-min Rain = 0
KST3 140652Z 12005KT M06/M10 A3031 RMK A01 T10591100  RH  073%=      5-min Rain = 0
KST3 140653Z 12005KT M06/M10 A3031 RMK A01 T10591099  RH  073%=      5-min Rain = 0
KST3 140654Z 12006KT M06/M10 A3031 RMK A01 T10591099  RH  073%=      5-min Rain = 0
KST3 140655Z 13006KT M06/M10 A3031 RMK A01 T10591100  RH  073%=      5-min Rain = 0
KST3 140656Z 13006KT M06/M10 A3031 RMK A01 T10591101  RH  072%=      5-min Rain = 0
KST3 140657Z 12005KT M06/M10 A3031 RMK A01 T10591100  RH  072%=      5-min Rain = 0
KST3 140658Z 13005KT M06/M10 A3031 RMK A01 T10591100  RH  072%=      5-min Rain = 0
KST3 140659Z 13006KT M06/M10 A3031 RMK A01 T10591101  RH  072%=      5-min Rain = 0
KST3 140700Z 12005KT M06/M10 A3031 RMK A01 T10591100  RH  073%=      5-min Rain = 0
KST3 140701Z 13004KT M06/M10 A3031 RMK A01 T10591100  RH  073%=      5-min Rain = 0
KST3 140702Z 13004KT M06/M10 A3031 RMK A01 T10591099  RH  073%=      5-min Rain = 0
KST3 140703Z 12004KT M06/M10 A3031 RMK A01 T10591099  RH  073%=      5-min Rain = 0
KST3 140704Z 12004KT M06/M10 A3031 RMK A01 T10591099  RH  073%=      5-min Rain = 0
KST3 140705Z 12005KT M06/M10 A3031 RMK A01 T10591099  RH  073%=      5-min Rain = 0
KST3 140706Z 12006KT M06/M10 A3031 RMK A01 T10581099  RH  073%=      5-min Rain = 0
KST3 140707Z 12005KT M06/M10 A3031 RMK A01 T10581100  RH  073%=      5-min Rain = 0
KST3 140708Z 13004KT M06/M10 A3031 RMK A01 T10581100  RH  072%=      5-min Rain = 0
KST3 140709Z 13003KT M06/M10 A3031 RMK A01 T10581100  RH  073%=      5-min Rain = 0
KST3 140710Z 13004KT M06/M10 A3031 RMK A01 T10581100  RH  073%=      5-min Rain = 0
KST3 140711Z 12005KT M06/M10 A3031 RMK A01 T10581099  RH  073%=      5-min Rain = 0
KST3 140712Z 12005KT M06/M10 A3031 RMK A01 T10581100  RH  073%=      5-min Rain = 0
KST3 140713Z 13004KT M06/M10 A3031 RMK A01 T10591099  RH  073%=      5-min Rain = 0
KST3 140714Z 13005KT M06/M10 A3031 RMK A01 T10581099  RH  073%=      5-min Rain = 0
KST3 140715Z 13006KT M06/M10 A303 RMK A01 T10581100  RH  072%=      5-min Rain = 0
KST3 140716Z 14005KT M06/M10 A303 RMK A01 T10581101  RH  072%=      5-min Rain = 0
KST3 140717Z 14006KT M06/M10 A303 RMK A01 T10581101  RH  071%=      5-min Rain = 0
KST3 140718Z 14005KT M06/M10 A303 RMK A01 T10581102  RH  071%=      5-min Rain = 0
KST3 140719Z 13005KT M06/M10 A303 RMK A01 T10581102  RH  071%=      5-min Rain = 0
KST3 140720Z 12005KT M06/M10 A303 RMK A01 T10581102  RH  071%=      5-min Rain = 0
KST3 140721Z 12006KT M06/M10 A3031 RMK A01 T10581102  RH  071%=      5-min Rain = 0
KST3 140722Z 13006KT M06/M10 A3031 RMK A01 T10581102  RH  071%=      5-min Rain = 0
KST3 140723Z 13005KT M06/M10 A303 RMK A01 T10581102  RH  071%=      5-min Rain = 0
KST3 140724Z 13004KT M06/M10 A303 RMK A01 T10581101  RH  072%=      5-min Rain = 0
KST3 140725Z 12004KT M06/M10 A303 RMK A01 T10581100  RH  072%=      5-min Rain = 0
KST3 140726Z 12007KT M06/M10 A303 RMK A01 T10581100  RH  072%=      5-min Rain = 0
KST3 140727Z 13006KT M06/M10 A303 RMK A01 T10581101  RH  072%=      5-min Rain = 0
KST3 140728Z 13006KT M06/M10 A303 RMK A01 T10581101  RH  072%=      5-min Rain = 0
KST3 140729Z 13004KT M06/M10 A303 RMK A01 T10591101  RH  072%=      5-min Rain = 0
KST3 140730Z 13005KT M06/M10 A303 RMK A01 T10591101  RH  072%=      5-min Rain = 0
KST3 140731Z 13004KT M06/M10 A303 RMK A01 T10591101  RH  072%=      5-min Rain = 0
KST3 140732Z 13004KT M06/M10 A303 RMK A01 T10581100  RH  072%=      5-min Rain = 0
KST3 140733Z 13005KT M06/M10 A303 RMK A01 T10591100  RH  072%=      5-min Rain = 0
KST3 140734Z 13005KT M06/M10 A303 RMK A01 T10581100  RH  073%=      5-min Rain = 0
KST3 140735Z 13005KT M06/M10 A303 RMK A01 T10581100  RH  073%=      5-min Rain = 0
KST3 140736Z 13004KT M06/M10 A303 RMK A01 T10581100  RH  072%=      5-min Rain = 0
KST3 140737Z 14006KT M06/M10 A303 RMK A01 T10581100  RH  072%=      5-min Rain = 0
KST3 140738Z 14006KT M06/M10 A303 RMK A01 T10581101  RH  072%=      5-min Rain = 0
KST3 140739Z 13004KT M06/M10 A303 RMK A01 T10581101  RH  071%=      5-min Rain = 0
KST3 140740Z 13006KT M06/M10 A303 RMK A01 T10581101  RH  072%=      5-min Rain = 0
KST3 140741Z 13005KT M06/M10 A303 RMK A01 T10581101  RH  072%=      5-min Rain = 0
KST3 140742Z 12007KT M06/M10 A303 RMK A01 T10581101  RH  072%=      5-min Rain = 0
KST3 140743Z 12007KT M06/M10 A303 RMK A01 T10581102  RH  071%=      5-min Rain = 0
KST3 140744Z 13006KT M06/M10 A303 RMK A01 T10581102  RH  072%=      5-min Rain = 0
KST3 140745Z 13005KT M06/M10 A303 RMK A01 T10591101  RH  072%=      5-min Rain = 0
KST3 140746Z 12006KT M06/M10 A303 RMK A01 T10591101  RH  072%=      5-min Rain = 0
KST3 140747Z 13006KT M06/M10 A303 RMK A01 T10581101  RH  072%=      5-min Rain = 0
KST3 140748Z 12006KT M06/M10 A303 RMK A01 T10581100  RH  072%=      5-min Rain = 0
KST3 140749Z 13005KT M06/M10 A303 RMK A01 T10581100  RH  072%=      5-min Rain = 0
KST3 140750Z 12006KT M06/M10 A303 RMK A01 T10581101  RH  072%=      5-min Rain = 0
KST3 140751Z 13006KT M06/M10 A303 RMK A01 T10581100  RH  072%=      5-min Rain = 0
KST3 140752Z 13006KT M06/M10 A303 RMK A01 T10581100  RH  072%=      5-min Rain = 0
KST3 140753Z 13005KT M06/M10 A303 RMK A01 T10581100  RH  072%=      5-min Rain = 0
KST3 140754Z 13005KT M06/M10 A303 RMK A01 T10581100  RH  072%=      5-min Rain = 0
KST3 140755Z 13004KT M06/M10 A303 RMK A01 T10581100  RH  073%=      5-min Rain = 0
KST3 140756Z 13005KT M06/M10 A303 RMK A01 T10581099  RH  073%=      5-min Rain = 0
KST3 140757Z 13005KT M06/M10 A303 RMK A01 T10581099  RH  073%=      5-min Rain = 0
KST3 140758Z 13005KT M06/M10 A303 RMK A01 T10581099  RH  073%=      5-min Rain = 0
KST3 140759Z 12006KT M06/M10 A303 RMK A01 T10591099  RH  073%=      5-min Rain = 0
KST3 140800Z 12006KT M06/M10 A303 RMK A01 T10581099  RH  073%=      5-min Rain = 0
KST3 140801Z 12006KT M06/M10 A303 RMK A01 T10581099  RH  073%=      5-min Rain = 0
KST3 140802Z 12005KT M06/M10 A303 RMK A01 T10581099  RH  073%=      5-min Rain = 0
KST3 140803Z 13006KT M06/M10 A303 RMK A01 T10591099  RH  073%=      5-min Rain = 0
KST3 140804Z 12007KT M06/M10 A303 RMK A01 T10591099  RH  073%=      5-min Rain = 0
KST3 140805Z 13006KT M06/M10 A303 RMK A01 T10581099  RH  073%=      5-min Rain = 0
KST3 140806Z 14005KT M06/M10 A303 RMK A01 T10581099  RH  073%=      5-min Rain = 0
KST3 140807Z 14005KT M06/M10 A303 RMK A01 T10581100  RH  073%=      5-min Rain = 0
KST3 140808Z 13005KT M06/M10 A303 RMK A01 T10581100  RH  072%=      5-min Rain = 0
KST3 140809Z 13005KT M06/M10 A303 RMK A01 T10581101  RH  072%=      5-min Rain = 0
KST3 140810Z 13005KT M06/M10 A303 RMK A01 T10581100  RH  072%=      5-min Rain = 0
KST3 140811Z 14004KT M06/M10 A303 RMK A01 T10581100  RH  073%=      5-min Rain = 0
KST3 140812Z 14005KT M06/M10 A303 RMK A01 T10581099  RH  073%=      5-min Rain = 0
KST3 140813Z 15005KT M06/M10 A303 RMK A01 T10581099  RH  073%=      5-min Rain = 0
KST3 140814Z 14005KT M06/M10 A303 RMK A01 T10581099  RH  073%=      5-min Rain = 0
KST3 140815Z 14004KT M06/M10 A303 RMK A01 T10581100  RH  072%=      5-min Rain = 0
KST3 140816Z 15005KT M06/M10 A303 RMK A01 T10581099  RH  072%=      5-min Rain = 0
KST3 140817Z 14006KT M06/M10 A303 RMK A01 T10581100  RH  072%=      5-min Rain = 0
KST3 140818Z 14007KT M06/M10 A303 RMK A01 T10581101  RH  071%=      5-min Rain = 0
KST3 140819Z 14007KT M06/M10 A303 RMK A01 T10571102  RH  071%=      5-min Rain = 0
KST3 140820Z 15006KT M06/M10 A303 RMK A01 T10581103  RH  071%=      5-min Rain = 0
KST3 140821Z 15006KT M06/M10 A303 RMK A01 T10581103  RH  071%=      5-min Rain = 0
KST3 140822Z 14007KT M06/M10 A303 RMK A01 T10581103  RH  071%=      5-min Rain = 0
KST3 140823Z 14006KT M06/M10 A303 RMK A01 T10581104  RH  070%=      5-min Rain = 0
KST3 140824Z 15007KT M06/M10 A303 RMK A01 T10581104  RH  070%=      5-min Rain = 0
KST3 140825Z 14005KT M06/M10 A303 RMK A01 T10581103  RH  070%=      5-min Rain = 0
KST3 140826Z 15006KT M06/M10 A303 RMK A01 T10581103  RH  071%=      5-min Rain = 0
KST3 140827Z 15007KT M06/M10 A303 RMK A01 T10581103  RH  071%=      5-min Rain = 0
KST3 140828Z 16007KT M06/M10 A303 RMK A01 T10581103  RH  071%=      5-min Rain = 0
KST3 140829Z 16007KT M06/M10 A303 RMK A01 T10581103  RH  071%=      5-min Rain = 0
KST3 140830Z 15007KT M06/M10 A303 RMK A01 T10581103  RH  071%=      5-min Rain = 0
KST3 140831Z 15007KT M06/M10 A303 RMK A01 T10591103  RH  071%=      5-min Rain = 0
KST3 140832Z 15007KT M06/M10 A303 RMK A01 T10581103  RH  071%=      5-min Rain = 0
KST3 140833Z 15006KT M06/M10 A303 RMK A01 T10581103  RH  071%=      5-min Rain = 0
KST3 140834Z 15006KT M06/M10 A303 RMK A01 T10581103  RH  071%=      5-min Rain = 0
KST3 140835Z 15007KT M06/M10 A303 RMK A01 T10591102  RH  071%=      5-min Rain = 0
KST3 140836Z 15007KT M06/M10 A303 RMK A01 T10581102  RH  071%=      5-min Rain = 0
KST3 140837Z 15007KT M06/M10 A303 RMK A01 T10581103  RH  071%=      5-min Rain = 0
KST3 140838Z 15008KT M06/M10 A303 RMK A01 T10581103  RH  071%=      5-min Rain = 0
KST3 140839Z 16008KT M06/M10 A303 RMK A01 T10591104  RH  071%=      5-min Rain = 0
KST3 140840Z 15007KT M06/M10 A303 RMK A01 T10591103  RH  071%=      5-min Rain = 0
KST3 140841Z 15005KT M06/M10 A303 RMK A01 T10591103  RH  071%=      5-min Rain = 0
KST3 140842Z 15007KT M06/M10 A303 RMK A01 T10581102  RH  072%=      5-min Rain = 0
KST3 140843Z 16006KT M06/M10 A303 RMK A01 T10581102  RH  071%=      5-min Rain = 0
KST3 140844Z 15005KT M06/M10 A303 RMK A01 T10581102  RH  071%=      5-min Rain = 0
KST3 140845Z 15008KT M06/M10 A303 RMK A01 T10581102  RH  071%=      5-min Rain = 0
KST3 140846Z 16008KT M06/M10 A303 RMK A01 T10581103  RH  070%=      5-min Rain = 0
KST3 140847Z 16007KT M06/M11 A303 RMK A01 T10581105  RH  069%=      5-min Rain = 0
KST3 140848Z 16008KT M06/M11 A303 RMK A01 T10581106  RH  069%=      5-min Rain = 0
KST3 140849Z 15009KT M06/M11 A303 RMK A01 T10581106  RH  069%=      5-min Rain = 0
KST3 140850Z 15009KT M06/M11 A303 RMK A01 T10591106  RH  069%=      5-min Rain = 0
KST3 140851Z 15009KT M06/M11 A303 RMK A01 T10591106  RH  069%=      5-min Rain = 0
KST3 140852Z 15009KT M06/M11 A303 RMK A01 T10591106  RH  069%=      5-min Rain = 0
KST3 140853Z 15007KT M06/M11 A303 RMK A01 T10591106  RH  069%=      5-min Rain = 0
KST3 140854Z 15007KT M06/M11 A303 RMK A01 T10591106  RH  069%=      5-min Rain = 0
KST3 140855Z 16006KT M06/M11 A303 RMK A01 T10591106  RH  070%=      5-min Rain = 0
KST3 140856Z 15007KT M06/M11 A303 RMK A01 T10591105  RH  070%=      5-min Rain = 0
KST3 140857Z 16006KT M06/M11 A303 RMK A01 T10581106  RH  069%=      5-min Rain = 0
KST3 140858Z 16006KT M06/M11 A303 RMK A01 T10581106  RH  069%=      5-min Rain = 0
KST3 140859Z 16009KT M06/M11 A303 RMK A01 T10581106  RH  069%=      5-min Rain = 0
KST3 140900Z 16008KT M06/M11 A303 RMK A01 T10591107  RH  069%=      5-min Rain = 0
KST3 140901Z 15006KT M06/M11 A303 RMK A01 T10591106  RH  069%=      5-min Rain = 0
KST3 140902Z 16006KT M06/M11 A303 RMK A01 T10591106  RH  069%=      5-min Rain = 0
KST3 140903Z 16006KT M06/M11 A303 RMK A01 T10591106  RH  070%=      5-min Rain = 0
KST3 140904Z 16007KT M06/M11 A303 RMK A01 T10591105  RH  070%=      5-min Rain = 0
KST3 140905Z 16009KT M06/M11 A303 RMK A01 T10591106  RH  069%=      5-min Rain = 0
KST3 140906Z 16008KT M06/M11 A303 RMK A01 T10591107  RH  069%=      5-min Rain = 0
KST3 140907Z 16009KT M06/M11 A303 RMK A01 T10591107  RH  069%=      5-min Rain = 0
KST3 140908Z 16008KT M06/M11 A303 RMK A01 T10591107  RH  069%=      5-min Rain = 0
KST3 140909Z 16008KT M06/M11 A303 RMK A01 T10591106  RH  069%=      5-min Rain = 0
KST3 140910Z 16009KT M06/M11 A303 RMK A01 T10591106  RH  069%=      5-min Rain = 0
KST3 140911Z 16008KT M06/M11 A303 RMK A01 T10591106  RH  069%=      5-min Rain = 0
KST3 140912Z 16007KT M06/M11 A303 RMK A01 T10591106  RH  070%=      5-min Rain = 0
KST3 140913Z 17006KT M06/M11 A303 RMK A01 T10591106  RH  070%=      5-min Rain = 0
KST3 140914Z 17008KT M06/M11 A303 RMK A01 T10591106  RH  070%=      5-min Rain = 0
KST3 140915Z 16007KT M06/M11 A303 RMK A01 T10591107  RH  069%=      5-min Rain = 0
KST3 140916Z 17009KT M06/M11 A303 RMK A01 T10591108  RH  069%=      5-min Rain = 0
KST3 140917Z 17008KT M06/M11 A303 RMK A01 T10591109  RH  068%=      5-min Rain = 0
KST3 140918Z 17009KT M06/M11 A303 RMK A01 T10591109  RH  068%=      5-min Rain = 0
KST3 140919Z 17008KT M06/M11 A303 RMK A01 T10601109  RH  068%=      5-min Rain = 0
KST3 140920Z 17009KT M06/M11 A303 RMK A01 T10601109  RH  068%=      5-min Rain = 0
KST3 140921Z 17009KT M06/M11 A303 RMK A01 T10601109  RH  068%=      5-min Rain = 0
KST3 140922Z 16009KT M06/M11 A303 RMK A01 T10601108  RH  069%=      5-min Rain = 0
KST3 140923Z 16008KT M06/M11 A303 RMK A01 T10601108  RH  069%=      5-min Rain = 0
KST3 140924Z 16008KT M06/M11 A303 RMK A01 T10601108  RH  069%=      5-min Rain = 0
KST3 140925Z 17007KT M06/M11 A303 RMK A01 T10601108  RH  069%=      5-min Rain = 0
KST3 140926Z 18008KT M06/M11 A303 RMK A01 T10601108  RH  069%=      5-min Rain = 0
KST3 140927Z 17009KT M06/M11 A303 RMK A01 T10601107  RH  069%=      5-min Rain = 0
KST3 140928Z 17009KT M06/M11 A303 RMK A01 T10601107  RH  069%=      5-min Rain = 0
KST3 140929Z 17009KT M06/M11 A303 RMK A01 T10601107  RH  069%=      5-min Rain = 0
KST3 140930Z 17010KT M06/M11 A303 RMK A01 T10601108  RH  069%=      5-min Rain = 0
KST3 140931Z 17010KT M06/M11 A3029 RMK A01 T10601108  RH  069%=      5-min Rain = 0
KST3 140932Z 16009KT M06/M11 A3029 RMK A01 T10601108  RH  069%=      5-min Rain = 0
KST3 140933Z 16009KT M06/M11 A3029 RMK A01 T10601108  RH  069%=      5-min Rain = 0
KST3 140934Z 16010KT M06/M11 A3029 RMK A01 T10601109  RH  069%=      5-min Rain = 0
KST3 140935Z 16009KT M06/M11 A3029 RMK A01 T10601108  RH  069%=      5-min Rain = 0
KST3 140936Z 16008KT M06/M11 A3029 RMK A01 T10601108  RH  069%=      5-min Rain = 0
KST3 140937Z 18008KT M06/M11 A3029 RMK A01 T10601109  RH  069%=      5-min Rain = 0
KST3 140938Z 17008KT M06/M11 A3029 RMK A01 T10601109  RH  069%=      5-min Rain = 0
KST3 140939Z 17009KT M06/M11 A3029 RMK A01 T10601109  RH  068%=      5-min Rain = 0
KST3 140940Z 16009KT M06/M11 A3029 RMK A01 T10601109  RH  068%=      5-min Rain = 0
KST3 140941Z 16008KT M06/M11 A3029 RMK A01 T10611109  RH  068%=      5-min Rain = 0
KST3 140942Z 17007KT M06/M11 A3029 RMK A01 T10611109  RH  069%=      5-min Rain = 0
KST3 140943Z 17007KT M06/M11 A3029 RMK A01 T10611108  RH  069%=      5-min Rain = 0
KST3 140944Z 17007KT M06/M11 A3029 RMK A01 T10601108  RH  069%=      5-min Rain = 0
KST3 140945Z 16007KT M06/M11 A3029 RMK A01 T10601108  RH  069%=      5-min Rain = 0
KST3 140946Z 16007KT M06/M11 A3029 RMK A01 T10601108  RH  069%=      5-min Rain = 0
KST3 140947Z 16008KT M06/M11 A3029 RMK A01 T10601108  RH  069%=      5-min Rain = 0
KST3 140948Z 17008KT M06/M11 A3029 RMK A01 T10601108  RH  069%=      5-min Rain = 0
KST3 140949Z 18009KT M06/M11 A3029 RMK A01 T10611108  RH  069%=      5-min Rain = 0
KST3 140950Z 17007KT M06/M11 A3029 RMK A01 T10611109  RH  069%=      5-min Rain = 0
KST3 140951Z 17008KT M06/M11 A3029 RMK A01 T10611108  RH  069%=      5-min Rain = 0
KST3 140952Z 17009KT M06/M11 A3029 RMK A01 T10611108  RH  069%=      5-min Rain = 0
KST3 140953Z 17007KT M06/M11 A3029 RMK A01 T10611108  RH  069%=      5-min Rain = 0
KST3 140954Z 16006KT M06/M11 A3029 RMK A01 T10611108  RH  070%=      5-min Rain = 0
KST3 140955Z 17008KT M06/M11 A3029 RMK A01 T10611107  RH  070%=      5-min Rain = 0
KST3 140956Z 16008KT M06/M11 A3029 RMK A01 T10611107  RH  070%=      5-min Rain = 0
KST3 140957Z 16008KT M06/M11 A3029 RMK A01 T10611108  RH  070%=      5-min Rain = 0
KST3 140958Z 17009KT M06/M11 A3029 RMK A01 T10611108  RH  070%=      5-min Rain = 0
KST3 140959Z 17009KT M06/M11 A3029 RMK A01 T10621107  RH  070%=      5-min Rain = 0
KST3 141000Z 17007KT M06/M11 A3029 RMK A01 T10621107  RH  070%=      5-min Rain = 0
KST3 141001Z 17008KT M06/M11 A3029 RMK A01 T10621107  RH  070%=      5-min Rain = 0
KST3 141002Z 17007KT M06/M11 A3029 RMK A01 T10621107  RH  070%=      5-min Rain = 0
KST3 141003Z 16005KT M06/M11 A3029 RMK A01 T10621107  RH  070%=      5-min Rain = 0
KST3 141004Z 17006KT M06/M11 A3029 RMK A01 T10621106  RH  071%=      5-min Rain = 0
KST3 141005Z 17008KT M06/M11 A3029 RMK A01 T10621106  RH  071%=      5-min Rain = 0
KST3 141006Z 17009KT M06/M11 A3029 RMK A01 T10621106  RH  071%=      5-min Rain = 0
KST3 141007Z 18009KT M06/M11 A3029 RMK A01 T10611106  RH  071%=      5-min Rain = 0
KST3 141008Z 17008KT M06/M11 A3028 RMK A01 T10621106  RH  071%=      5-min Rain = 0
KST3 141009Z 18009KT M06/M11 A3028 RMK A01 T10621106  RH  071%=      5-min Rain = 0
KST3 141010Z 17007KT M06/M11 A3028 RMK A01 T10611105  RH  071%=      5-min Rain = 0
KST3 141011Z 18008KT M06/M11 A3028 RMK A01 T10621106  RH  071%=      5-min Rain = 0
KST3 141012Z 18008KT M06/M11 A3028 RMK A01 T10621106  RH  071%=      5-min Rain = 0
KST3 141013Z 17008KT M06/M11 A3028 RMK A01 T10611106  RH  071%=      5-min Rain = 0
KST3 141014Z 18008KT M06/M11 A3028 RMK A01 T10611105  RH  071%=      5-min Rain = 0
KST3 141015Z 18007KT M06/M11 A3028 RMK A01 T10611105  RH  071%=      5-min Rain = 0
KST3 141016Z 17007KT M06/M11 A3029 RMK A01 T10611105  RH  071%=      5-min Rain = 0
KST3 141017Z 17006KT M06/M11 A3028 RMK A01 T10611105  RH  071%=      5-min Rain = 0
KST3 141018Z 16006KT M06/M10 A3028 RMK A01 T10611104  RH  072%=      5-min Rain = 0
KST3 141019Z 17008KT M06/M10 A3028 RMK A01 T10611104  RH  072%=      5-min Rain = 0
KST3 141020Z 17008KT M06/M10 A3028 RMK A01 T10611104  RH  071%=      5-min Rain = 0
KST3 141021Z 16008KT M06/M10 A3028 RMK A01 T10611104  RH  072%=      5-min Rain = 0
KST3 141022Z 17008KT M06/M10 A3028 RMK A01 T10611104  RH  071%=      5-min Rain = 0
KST3 141023Z 17008KT M06/M10 A3028 RMK A01 T10611104  RH  072%=      5-min Rain = 0
KST3 141024Z 17007KT M06/M10 A3028 RMK A01 T10611104  RH  072%=      5-min Rain = 0
KST3 141025Z 18007KT M06/M10 A3028 RMK A01 T10611104  RH  072%=      5-min Rain = 0
KST3 141026Z 17008KT M06/M10 A3028 RMK A01 T10611103  RH  072%=      5-min Rain = 0
KST3 141027Z 17008KT M06/M10 A3028 RMK A01 T10601103  RH  072%=      5-min Rain = 0
KST3 141028Z 17007KT M06/M10 A3028 RMK A01 T10611103  RH  072%=      5-min Rain = 0
KST3 141029Z 17007KT M06/M10 A3028 RMK A01 T10611103  RH  072%=      5-min Rain = 0
KST3 141030Z 17007KT M06/M10 A3028 RMK A01 T10611103  RH  072%=      5-min Rain = 0
KST3 141031Z 17007KT M06/M10 A3028 RMK A01 T10611103  RH  072%=      5-min Rain = 0
KST3 141032Z 17006KT M06/M10 A3028 RMK A01 T10611103  RH  072%=      5-min Rain = 0
KST3 141033Z 18006KT M06/M10 A3028 RMK A01 T10601102  RH  073%=      5-min Rain = 0
KST3 141034Z 18007KT M06/M10 A3028 RMK A01 T10601101  RH  073%=      5-min Rain = 0
KST3 141035Z 18007KT M06/M10 A3028 RMK A01 T10601101  RH  072%=      5-min Rain = 0
KST3 141036Z 17007KT M06/M10 A3028 RMK A01 T10601102  RH  072%=      5-min Rain = 0
KST3 141037Z 17008KT M06/M10 A3028 RMK A01 T10601102  RH  072%=      5-min Rain = 0
KST3 141038Z 17008KT M06/M10 A3028 RMK A01 T10601102  RH  072%=      5-min Rain = 0
KST3 141039Z 18008KT M06/M10 A3028 RMK A01 T10601101  RH  073%=      5-min Rain = 0
KST3 141040Z 17007KT M06/M10 A3028 RMK A01 T10601101  RH  073%=      5-min Rain = 0
KST3 141041Z 18008KT M06/M10 A3028 RMK A01 T10591100  RH  073%=      5-min Rain = 0
KST3 141042Z 18008KT M06/M10 A3028 RMK A01 T10591101  RH  073%=      5-min Rain = 0
KST3 141043Z 18007KT M06/M10 A3028 RMK A01 T10591100  RH  073%=      5-min Rain = 0
KST3 141044Z 19007KT M06/M10 A3028 RMK A01 T10591100  RH  073%=      5-min Rain = 0
KST3 141045Z 18007KT M06/M10 A3028 RMK A01 T10581100  RH  073%=      5-min Rain = 0
KST3 141046Z 18007KT M06/M10 A3028 RMK A01 T10581100  RH  072%=      5-min Rain = 0
KST3 141047Z 19007KT M06/M10 A3028 RMK A01 T10581100  RH  072%=      5-min Rain = 0
KST3 141048Z 18007KT M06/M10 A3028 RMK A01 T10581100  RH  072%=      5-min Rain = 0
KST3 141049Z 18008KT M06/M10 A3028 RMK A01 T10571099  RH  072%=      5-min Rain = 0
KST3 141050Z 19007KT M06/M10 A3028 RMK A01 T10571100  RH  072%=      5-min Rain = 0
KST3 141051Z 19006KT M06/M10 A3028 RMK A01 T10571100  RH  071%=      5-min Rain = 0
KST3 141052Z 19008KT M06/M10 A3028 RMK A01 T10571101  RH  071%=      5-min Rain = 0
KST3 141053Z 19009KT M06/M10 A3028 RMK A01 T10571102  RH  071%=      5-min Rain = 0
KST3 141054Z 19008KT M06/M10 A3028 RMK A01 T10561102  RH  070%=      5-min Rain = 0
KST3 141055Z 19008KT M06/M10 A3028 RMK A01 T10571103  RH  070%=      5-min Rain = 0
KST3 141056Z 19009KT M06/M10 A3028 RMK A01 T10571104  RH  069%=      5-min Rain = 0
KST3 141057Z 19009KT M06/M11 A3028 RMK A01 T10571105  RH  069%=      5-min Rain = 0
KST3 141058Z 19009KT M06/M11 A3028 RMK A01 T10571105  RH  069%=      5-min Rain = 0
KST3 141059Z 18008KT M06/M11 A3028 RMK A01 T10561105  RH  069%=      5-min Rain = 0
KST3 141100Z 19009KT M06/M11 A3028 RMK A01 T10571106  RH  068%=      5-min Rain = 0
KST3 141101Z 19007KT M06/M11 A3028 RMK A01 T10571106  RH  068%=      5-min Rain = 0
KST3 141102Z 18007KT M06/M11 A3028 RMK A01 T10571105  RH  069%=      5-min Rain = 0
KST3 141103Z 17007KT M06/M11 A3028 RMK A01 T10561105  RH  068%=      5-min Rain = 0
KST3 141104Z 18008KT M06/M11 A3028 RMK A01 T10561106  RH  068%=      5-min Rain = 0
KST3 141105Z 17008KT M06/M11 A3028 RMK A01 T10561106  RH  068%=      5-min Rain = 0
KST3 141106Z 17009KT M06/M11 A3028 RMK A01 T10561106  RH  068%=      5-min Rain = 0
KST3 141107Z 17009KT M06/M11 A3028 RMK A01 T10561107  RH  067%=      5-min Rain = 0
KST3 141108Z 18009KT M06/M11 A3028 RMK A01 T10571108  RH  067%=      5-min Rain = 0
KST3 141109Z 18007KT M06/M11 A3028 RMK A01 T10571108  RH  067%=      5-min Rain = 0
KST3 141110Z 18008KT M06/M11 A3028 RMK A01 T10571108  RH  067%=      5-min Rain = 0
KST3 141111Z 18010KT M06/M11 A3028 RMK A01 T10571108  RH  067%=      5-min Rain = 0
KST3 141112Z 18008KT M06/M11 A3028 RMK A01 T10571109  RH  067%=      5-min Rain = 0
KST3 141113Z 18009KT M06/M11 A3028 RMK A01 T10571109  RH  067%=      5-min Rain = 0
KST3 141114Z 18010KT M06/M11 A3027 RMK A01 T10571109  RH  067%=      5-min Rain = 0
KST3 141115Z 18009KT M06/M11 A3027 RMK A01 T10571109  RH  067%=      5-min Rain = 0
KST3 141116Z 18009KT M06/M11 A3027 RMK A01 T10571109  RH  067%=      5-min Rain = 0
KST3 141117Z 18008KT M06/M11 A3027 RMK A01 T10571109  RH  067%=      5-min Rain = 0
KST3 141118Z 18008KT M06/M11 A3027 RMK A01 T10571109  RH  067%=      5-min Rain = 0
KST3 141119Z 19010KT M06/M11 A3027 RMK A01 T10571108  RH  067%=      5-min Rain = 0
KST3 141120Z 19010KT M06/M11 A3027 RMK A01 T10571109  RH  067%=      5-min Rain = 0
KST3 141121Z 20011KT M06/M11 A3027 RMK A01 T10571110  RH  067%=      5-min Rain = 0
KST3 141122Z 19010KT M06/M11 A3027 RMK A01 T10571109  RH  067%=      5-min Rain = 0
KST3 141123Z 20010KT M06/M11 A3027 RMK A01 T10581109  RH  067%=      5-min Rain = 0
KST3 141124Z 19009KT M06/M11 A3027 RMK A01 T10581109  RH  067%=      5-min Rain = 0
KST3 141125Z 19008KT M06/M11 A3027 RMK A01 T10571109  RH  067%=      5-min Rain = 0
KST3 141126Z 19007KT M06/M11 A3027 RMK A01 T10571108  RH  067%=      5-min Rain = 0
KST3 141127Z 19008KT M06/M11 A3027 RMK A01 T10581108  RH  068%=      5-min Rain = 0
KST3 141128Z 19007KT M06/M11 A3027 RMK A01 T10581108  RH  068%=      5-min Rain = 0
KST3 141129Z 19008KT M06/M11 A3027 RMK A01 T10571107  RH  068%=      5-min Rain = 0
KST3 141130Z 18009KT M06/M11 A3027 RMK A01 T10571108  RH  068%=      5-min Rain = 0
KST3 141131Z 19009KT M06/M11 A3027 RMK A01 T10571108  RH  067%=      5-min Rain = 0
KST3 141132Z 19008KT M06/M11 A3027 RMK A01 T10581109  RH  067%=      5-min Rain = 0
KST3 141133Z 18007KT M06/M11 A3027 RMK A01 T10581108  RH  067%=      5-min Rain = 0
KST3 141134Z 19010KT M06/M11 A3027 RMK A01 T10571108  RH  068%=      5-min Rain = 0
KST3 141135Z 18011KT M06/M11 A3027 RMK A01 T10581109  RH  067%=      5-min Rain = 0
KST3 141136Z 18010KT M06/M11 A3027 RMK A01 T10581109  RH  067%=      5-min Rain = 0
KST3 141137Z 18010KT M06/M11 A3027 RMK A01 T10581109  RH  067%=      5-min Rain = 0
KST3 141138Z 18011KT M06/M11 A3027 RMK A01 T10581109  RH  067%=      5-min Rain = 0
KST3 141139Z 18011KT M06/M11 A3027 RMK A01 T10581109  RH  067%=      5-min Rain = 0
KST3 141140Z 18010KT M06/M11 A3027 RMK A01 T10581109  RH  067%=      5-min Rain = 0
KST3 141141Z 18008KT M06/M11 A3027 RMK A01 T10581109  RH  067%=      5-min Rain = 0
KST3 141142Z 18010KT M06/M11 A3027 RMK A01 T10581108  RH  068%=      5-min Rain = 0
KST3 141143Z 19010KT M06/M11 A3027 RMK A01 T10581108  RH  068%=      5-min Rain = 0
KST3 141144Z 18009KT M06/M11 A3027 RMK A01 T10581108  RH  068%=      5-min Rain = 0
KST3 141145Z 18009KT M06/M11 A3027 RMK A01 T10581108  RH  068%=      5-min Rain = 0
KST3 141146Z 18009KT M06/M11 A3027 RMK A01 T10581108  RH  068%=      5-min Rain = 0
KST3 141147Z 18009KT M06/M11 A3027 RMK A01 T10581108  RH  068%=      5-min Rain = 0
KST3 141148Z 18009KT M06/M11 A3027 RMK A01 T10581108  RH  068%=      5-min Rain = 0
KST3 141149Z 18008KT M06/M11 A3027 RMK A01 T10581107  RH  068%=      5-min Rain = 0
KST3 141150Z 19011KT M06/M11 A3027 RMK A01 T10581107  RH  068%=      5-min Rain = 0
KST3 141151Z 19009KT M06/M11 A3027 RMK A01 T10581108  RH  068%=      5-min Rain = 0
KST3 141152Z 19009KT M06/M11 A3027 RMK A01 T10581107  RH  068%=      5-min Rain = 0
KST3 141153Z 18010KT M06/M11 A3027 RMK A01 T10581107  RH  068%=      5-min Rain = 0
KST3 141154Z 18010KT M06/M11 A3027 RMK A01 T10581107  RH  068%=      5-min Rain = 0
KST3 141155Z 18010KT M06/M11 A3027 RMK A01 T10581107  RH  068%=      5-min Rain = 0
KST3 141156Z 18009KT M06/M11 A3027 RMK A01 T10581107  RH  068%=      5-min Rain = 0
KST3 141157Z 18009KT M06/M11 A3027 RMK A01 T10581107  RH  068%=      5-min Rain = 0
KST3 141158Z 18007KT M06/M11 A3027 RMK A01 T10581106  RH  069%=      5-min Rain = 0
KST3 141159Z 18010KT M06/M11 A3027 RMK A01 T10581106  RH  069%=      5-min Rain = 0
KST3 141200Z 18010KT M06/M11 A3027 RMK A01 T10581106  RH  069%=      5-min Rain = 0
KST3 141201Z 18011KT M06/M11 A3027 RMK A01 T10581106  RH  069%=      5-min Rain = 0
KST3 141202Z 18011KT M06/M11 A3027 RMK A01 T10581106  RH  069%=      5-min Rain = 0
KST3 141203Z 18011KT M06/M11 A3027 RMK A01 T10581107  RH  068%=      5-min Rain = 0
KST3 141204Z 18011KT M06/M11 A3027 RMK A01 T10591107  RH  069%=      5-min Rain = 0
KST3 141205Z 19010KT M06/M11 A3027 RMK A01 T10581106  RH  069%=      5-min Rain = 0
KST3 141206Z 19009KT M06/M11 A3027 RMK A01 T10581106  RH  069%=      5-min Rain = 0
KST3 141207Z 18008KT M06/M11 A3027 RMK A01 T10581106  RH  069%=      5-min Rain = 0
KST3 141208Z 18008KT M06/M11 A3027 RMK A01 T10591106  RH  069%=      5-min Rain = 0
KST3 141209Z 18008KT M06/M11 A3027 RMK A01 T10581105  RH  070%=      5-min Rain = 0
KST3 141210Z 19008KT M06/M11 A3027 RMK A01 T10581105  RH  070%=      5-min Rain = 0
KST3 141211Z 18011KT M06/M10 A3027 RMK A01 T10581104  RH  070%=      5-min Rain = 0
KST3 141212Z 19011KT M06/M11 A3027 RMK A01 T10581105  RH  070%=      5-min Rain = 0
KST3 141213Z 18010KT M06/M11 A3027 RMK A01 T10581105  RH  070%=      5-min Rain = 0
KST3 141214Z 18012KT M06/M10 A3027 RMK A01 T10581104  RH  070%=      5-min Rain = 0
KST3 141215Z 18010KT M06/M10 A3027 RMK A01 T10581104  RH  070%=      5-min Rain = 0
KST3 141216Z 18010KT M06/M10 A3027 RMK A01 T10581104  RH  070%=      5-min Rain = 0
KST3 141217Z 19010KT M06/M10 A3027 RMK A01 T10581103  RH  070%=      5-min Rain = 0
KST3 141218Z 18010KT M06/M10 A3027 RMK A01 T10581104  RH  070%=      5-min Rain = 0
KST3 141219Z 18011KT M06/M10 A3026 RMK A01 T10581104  RH  070%=      5-min Rain = 0
KST3 141220Z 18009KT M06/M10 A3026 RMK A01 T10581104  RH  070%=      5-min Rain = 0
KST3 141221Z 19009KT M06/M10 A3026 RMK A01 T10581103  RH  070%=      5-min Rain = 0
KST3 141222Z 18008KT M06/M10 A3027 RMK A01 T10581103  RH  070%=      5-min Rain = 0
KST3 141223Z 18007KT M06/M10 A3027 RMK A01 T10571102  RH  071%=      5-min Rain = 0
KST3 141224Z 18007KT M06/M10 A3026 RMK A01 T10571102  RH  071%=      5-min Rain = 0
KST3 141225Z 18009KT M06/M10 A3026 RMK A01 T10571102  RH  071%=      5-min Rain = 0
KST3 141226Z 18010KT M06/M10 A3026 RMK A01 T10571102  RH  070%=      5-min Rain = 0
KST3 141227Z 18011KT M06/M10 A3026 RMK A01 T10571103  RH  070%=      5-min Rain = 0
KST3 141228Z 18010KT M06/M10 A3026 RMK A01 T10571103  RH  070%=      5-min Rain = 0
KST3 141229Z 18010KT M06/M10 A3026 RMK A01 T10571103  RH  070%=      5-min Rain = 0
KST3 141230Z 18011KT M06/M10 A3026 RMK A01 T10571103  RH  070%=      5-min Rain = 0
KST3 141231Z 18011KT M06/M10 A3026 RMK A01 T10561103  RH  070%=      5-min Rain = 0
KST3 141232Z 18010KT M06/M10 A3026 RMK A01 T10561103  RH  069%=      5-min Rain = 0
KST3 141233Z 18010KT M06/M10 A3026 RMK A01 T10571104  RH  069%=      5-min Rain = 0
KST3 141234Z 18011KT M06/M10 A3026 RMK A01 T10571104  RH  069%=      5-min Rain = 0
KST3 141235Z 18010KT M06/M10 A3026 RMK A01 T10571104  RH  069%=      5-min Rain = 0
KST3 141236Z 18008KT M06/M10 A3026 RMK A01 T10561104  RH  069%=      5-min Rain = 0
KST3 141237Z 18012KT M06/M10 A3026 RMK A01 T10561104  RH  069%=      5-min Rain = 0
KST3 141238Z 19011KT M06/M11 A3026 RMK A01 T10561105  RH  068%=      5-min Rain = 0
KST3 141239Z 18012KT M06/M11 A3026 RMK A01 T10561107  RH  068%=      5-min Rain = 0
KST3 141240Z 18012KT M06/M11 A3026 RMK A01 T10561107  RH  067%=      5-min Rain = 0
KST3 141241Z 18012KT M06/M11 A3026 RMK A01 T10571107  RH  067%=      5-min Rain = 0
KST3 141242Z 19009KT M06/M11 A3026 RMK A01 T10571107  RH  067%=      5-min Rain = 0
KST3 141243Z 18010KT M06/M11 A3026 RMK A01 T10561107  RH  068%=      5-min Rain = 0
KST3 141244Z 18010KT M06/M11 A3026 RMK A01 T10561106  RH  068%=      5-min Rain = 0
KST3 141245Z 18012KT M06/M11 A3026 RMK A01 T10561107  RH  068%=      5-min Rain = 0
KST3 141246Z 18011KT M06/M11 A3026 RMK A01 T10571107  RH  068%=      5-min Rain = 0
KST3 141247Z 18011KT M06/M11 A3026 RMK A01 T10571107  RH  068%=      5-min Rain = 0
KST3 141248Z 18011KT M06/M11 A3026 RMK A01 T10571106  RH  068%=      5-min Rain = 0
KST3 141249Z 18010KT M06/M11 A3026 RMK A01 T10571107  RH  068%=      5-min Rain = 0
KST3 141250Z 18009KT M06/M11 A3026 RMK A01 T10571107  RH  068%=      5-min Rain = 0
KST3 141251Z 18011KT M06/M11 A3026 RMK A01 T10571107  RH  068%=      5-min Rain = 0
KST3 141252Z 17010KT M06/M11 A3026 RMK A01 T10571107  RH  068%=      5-min Rain = 0
KST3 141253Z 18011KT M06/M11 A3026 RMK A01 T10571107  RH  068%=      5-min Rain = 0
KST3 141254Z 18011KT M06/M11 A3026 RMK A01 T10581107  RH  068%=      5-min Rain = 0
KST3 141255Z 18011KT M06/M11 A3027 RMK A01 T10571107  RH  068%=      5-min Rain = 0
KST3 141256Z 18011KT M06/M11 A3026 RMK A01 T10571107  RH  068%=      5-min Rain = 0
KST3 141257Z 18010KT M06/M11 A3027 RMK A01 T10571106  RH  068%=      5-min Rain = 0
KST3 141258Z 18011KT M06/M11 A3026 RMK A01 T10581106  RH  069%=      5-min Rain = 0
KST3 141259Z 19011KT M06/M11 A3026 RMK A01 T10571105  RH  069%=      5-min Rain = 0
KST3 141300Z 18010KT M06/M11 A3026 RMK A01 T10571105  RH  069%=      5-min Rain = 0
KST3 141301Z 19009KT M06/M10 A3026 RMK A01 T10571104  RH  070%=      5-min Rain = 0
KST3 141302Z 18012KT M06/M10 A3026 RMK A01 T10581104  RH  070%=      5-min Rain = 0
KST3 141303Z 19010KT M06/M10 A3026 RMK A01 T10581104  RH  070%=      5-min Rain = 0
KST3 141304Z 19010KT M06/M10 A3026 RMK A01 T10571103  RH  070%=      5-min Rain = 0
KST3 141305Z 19012KT M06/M10 A3026 RMK A01 T10571102  RH  071%=      5-min Rain = 0
KST3 141306Z 19011KT M06/M10 A3026 RMK A01 T10571102  RH  071%=      5-min Rain = 0
KST3 141307Z 19012KT M06/M10 A3026 RMK A01 T10571102  RH  071%=      5-min Rain = 0
KST3 141308Z 19012KT M06/M10 A3026 RMK A01 T10571101  RH  071%=      5-min Rain = 0
KST3 141309Z 19012KT M06/M10 A3026 RMK A01 T10571100  RH  072%=      5-min Rain = 0
KST3 141310Z 19012KT M06/M10 A3026 RMK A01 T10571098  RH  072%=      5-min Rain = 0
KST3 141311Z 19013KT M06/M10 A3026 RMK A01 T10571098  RH  073%=      5-min Rain = 0
KST3 141312Z 18011KT M06/M10 A3026 RMK A01 T10571098  RH  073%=      5-min Rain = 0
KST3 141313Z 18013KT M06/M10 A3026 RMK A01 T10561097  RH  073%=      5-min Rain = 0
KST3 141314Z 18013KT M06/M10 A3026 RMK A01 T10561096  RH  074%=      5-min Rain = 0
KST3 141315Z 18014KT M06/M09 A3026 RMK A01 T10561094  RH  075%=      5-min Rain = 0
KST3 141316Z 18013KT M06/M09 A3026 RMK A01 T10571093  RH  076%=      5-min Rain = 0
KST3 141317Z 19013KT M06/M09 A3026 RMK A01 T10571091  RH  077%=      5-min Rain = 0
KST3 141318Z 18014KT M06/M09 A3026 RMK A01 T10561091  RH  077%=      5-min Rain = 0
KST3 141319Z 18013KT M06/M09 A3026 RMK A01 T10571091  RH  077%=      5-min Rain = 0
KST3 141320Z 19011KT M06/M09 A3026 RMK A01 T10571090  RH  077%=      5-min Rain = 0
KST3 141321Z 19012KT M06/M09 A3026 RMK A01 T10571090  RH  077%=      5-min Rain = 0
KST3 141322Z 19013KT M06/M09 A3026 RMK A01 T10561090  RH  077%=      5-min Rain = 0
KST3 141323Z 19015KT M06/M09 A3026 RMK A01 T10561089  RH  078%=      5-min Rain = 0
KST3 141324Z 18014KT M06/M09 A3026 RMK A01 T10571090  RH  078%=      5-min Rain = 0
KST3 141325Z 18015KT M06/M09 A3026 RMK A01 T10571089  RH  078%=      5-min Rain = 0
KST3 141326Z 19013KT M06/M09 A3026 RMK A01 T10571090  RH  078%=      5-min Rain = 0
KST3 141327Z 18011KT M06/M09 A3027 RMK A01 T10571090  RH  078%=      5-min Rain = 0
KST3 141328Z 19013KT M06/M09 A3027 RMK A01 T10561090  RH  077%=      5-min Rain = 0
KST3 141329Z 19013KT M06/M09 A3026 RMK A01 T10571089  RH  078%=      5-min Rain = 0
KST3 141330Z 19015KT M06/M09 A3026 RMK A01 T10571088  RH  078%=      5-min Rain = 0
KST3 141331Z 18012KT M06/M09 A3027 RMK A01 T10571088  RH  079%=      5-min Rain = 0
KST3 141332Z 19014KT M06/M09 A3026 RMK A01 T10561087  RH  079%=      5-min Rain = 0
KST3 141333Z 19013KT M06/M09 A3026 RMK A01 T10571087  RH  079%=      5-min Rain = 0
KST3 141334Z 19011KT M06/M09 A3026 RMK A01 T10561086  RH  079%=      5-min Rain = 0
KST3 141335Z 19012KT M06/M09 A3026 RMK A01 T10561086  RH  079%=      5-min Rain = 0
KST3 141336Z 19011KT M06/M09 A3027 RMK A01 T10561086  RH  079%=      5-min Rain = 0
KST3 141337Z 19013KT M06/M09 A3026 RMK A01 T10561086  RH  079%=      5-min Rain = 0
KST3 141338Z 19013KT M06/M09 A3026 RMK A01 T10561086  RH  079%=      5-min Rain = 0
KST3 141339Z 19013KT M06/M09 A3026 RMK A01 T10551086  RH  079%=      5-min Rain = 0
KST3 141340Z 19014G19KT M06/M09 A3026 RMK A01 T10561087  RH  079%=      5-min Rain = 0
KST3 141341Z 19015KT M06/M09 A3026 RMK A01 T10561088  RH  078%=      5-min Rain = 0
KST3 141342Z 19011KT M06/M09 A3026 RMK A01 T10561089  RH  078%=      5-min Rain = 0
KST3 141343Z 19013KT M06/M09 A3026 RMK A01 T10551088  RH  078%=      5-min Rain = 0
KST3 141344Z 18013KT M06/M09 A3027 RMK A01 T10551089  RH  077%=      5-min Rain = 0
KST3 141345Z 19015KT M06/M09 A3027 RMK A01 T10551090  RH  077%=      5-min Rain = 0
KST3 141346Z 19014KT M06/M09 A3027 RMK A01 T10551090  RH  076%=      5-min Rain = 0
KST3 141347Z 19012KT M06/M09 A3027 RMK A01 T10551090  RH  076%=      5-min Rain = 0
KST3 141348Z 19010KT M06/M09 A3027 RMK A01 T10551090  RH  076%=      5-min Rain = 0
KST3 141349Z 18012KT M06/M09 A3027 RMK A01 T10551090  RH  076%=      5-min Rain = 0
KST3 141350Z 19015KT M05/M09 A3027 RMK A01 T10541090  RH  076%=      5-min Rain = 0
KST3 141351Z 19013KT M05/M09 A3027 RMK A01 T10541090  RH  076%=      5-min Rain = 0
KST3 141352Z 18013KT M05/M09 A3027 RMK A01 T10541091  RH  075%=      5-min Rain = 0
KST3 141353Z 19013KT M05/M09 A3027 RMK A01 T10541091  RH  075%=      5-min Rain = 0
KST3 141354Z 19014KT M05/M09 A3027 RMK A01 T10541091  RH  075%=      5-min Rain = 0
KST3 141355Z 19015KT M05/M09 A3027 RMK A01 T10541091  RH  075%=      5-min Rain = 0
KST3 141356Z 19013KT M05/M09 A3027 RMK A01 T10541092  RH  075%=      5-min Rain = 0
KST3 141357Z 18013KT M05/M09 A3027 RMK A01 T10541092  RH  075%=      5-min Rain = 0
KST3 141358Z 18013KT M05/M09 A3027 RMK A01 T10541092  RH  075%=      5-min Rain = 0
KST3 141359Z 18013KT M05/M09 A3027 RMK A01 T10541091  RH  075%=      5-min Rain = 0
KST3 141400Z 19013KT M05/M09 A3027 RMK A01 T10541091  RH  075%=      5-min Rain = 0
KST3 141401Z 19012KT M05/M09 A3027 RMK A01 T10541090  RH  076%=      5-min Rain = 0
KST3 141402Z 19013KT M05/M09 A3027 RMK A01 T10541090  RH  076%=      5-min Rain = 0
KST3 141403Z 19013KT M05/M09 A3027 RMK A01 T10541090  RH  076%=      5-min Rain = 0
KST3 141404Z 19013KT M05/M09 A3027 RMK A01 T10541090  RH  076%=      5-min Rain = 0
KST3 141405Z 19013KT M05/M09 A3027 RMK A01 T10541090  RH  076%=      5-min Rain = 0
KST3 141406Z 18012KT M05/M09 A3027 RMK A01 T10541090  RH  076%=      5-min Rain = 0
KST3 141407Z 19011KT M05/M09 A3027 RMK A01 T10541090  RH  076%=      5-min Rain = 0
KST3 141408Z 18013KT M05/M09 A3027 RMK A01 T10541090  RH  075%=      5-min Rain = 0
KST3 141409Z 18013G18KT M05/M09 A3027 RMK A01 T10541091  RH  075%=      5-min Rain = 0
KST3 141410Z 19015KT M05/M09 A3027 RMK A01 T10541090  RH  076%=      5-min Rain = 0
KST3 141411Z 19012KT M05/M09 A3027 RMK A01 T10541089  RH  076%=      5-min Rain = 0
KST3 141412Z 19010KT M05/M09 A3027 RMK A01 T10541088  RH  077%=      5-min Rain = 0
KST3 141413Z 19011KT M05/M09 A3027 RMK A01 T10541088  RH  077%=      5-min Rain = 0
KST3 141414Z 19014KT M05/M09 A3027 RMK A01 T10531088  RH  077%=      5-min Rain = 0
KST3 141415Z 18015KT M05/M09 A3027 RMK A01 T10531089  RH  076%=      5-min Rain = 0
KST3 141416Z 19015KT M05/M09 A3027 RMK A01 T10531089  RH  076%=      5-min Rain = 0
KST3 141417Z 19014KT M05/M09 A3027 RMK A01 T10531088  RH  076%=      5-min Rain = 0
KST3 141418Z 19012KT M05/M09 A3027 RMK A01 T10531088  RH  076%=      5-min Rain = 0
KST3 141419Z 19013KT M05/M09 A3027 RMK A01 T10531088  RH  076%=      5-min Rain = 0
KST3 141420Z 19012KT M05/M09 A3027 RMK A01 T10531088  RH  076%=      5-min Rain = 0
KST3 141421Z 19016KT M05/M09 A3027 RMK A01 T10531088  RH  076%=      5-min Rain = 0
KST3 141422Z 19015KT M05/M09 A3027 RMK A01 T10531088  RH  076%=      5-min Rain = 0
KST3 141423Z 19015KT M05/M09 A3027 RMK A01 T10541089  RH  076%=      5-min Rain = 0
KST3 141424Z 19013KT M05/M09 A3027 RMK A01 T10531088  RH  076%=      5-min Rain = 0
KST3 141425Z 19010KT M05/M09 A3027 RMK A01 T10531088  RH  077%=      5-min Rain = 0
KST3 141426Z 19012KT M05/M09 A3027 RMK A01 T10531087  RH  077%=      5-min Rain = 0
KST3 141427Z 19010KT M05/M09 A3027 RMK A01 T10531087  RH  077%=      5-min Rain = 0
KST3 141428Z 19014KT M05/M09 A3027 RMK A01 T10521087  RH  077%=      5-min Rain = 0
KST3 141429Z 18016KT M05/M09 A3027 RMK A01 T10521087  RH  076%=      5-min Rain = 0
KST3 141430Z 19014KT M05/M09 A3027 RMK A01 T10521087  RH  076%=      5-min Rain = 0
KST3 141431Z 18016KT M05/M09 A3027 RMK A01 T10521087  RH  076%=      5-min Rain = 0
KST3 141432Z 19015KT M05/M09 A3027 RMK A01 T10521087  RH  076%=      5-min Rain = 0
KST3 141433Z 19015KT M05/M09 A3027 RMK A01 T10521087  RH  076%=      5-min Rain = 0
KST3 141434Z 19013G18KT M05/M09 A3027 RMK A01 T10521087  RH  076%=      5-min Rain = 0
KST3 141435Z 19012KT M05/M09 A3027 RMK A01 T10521087  RH  077%=      5-min Rain = 0
KST3 141436Z 18014KT M05/M09 A3027 RMK A01 T10521086  RH  077%=      5-min Rain = 0
KST3 141437Z 19013KT M05/M09 A3027 RMK A01 T10511086  RH  077%=      5-min Rain = 0
KST3 141438Z 18011KT M05/M09 A3027 RMK A01 T10511085  RH  077%=      5-min Rain = 0
KST3 141439Z 19015KT M05/M09 A3027 RMK A01 T10511085  RH  077%=      5-min Rain = 0
KST3 141440Z 19014KT M05/M09 A3027 RMK A01 T10511086  RH  076%=      5-min Rain = 0
KST3 141441Z 19013KT M05/M09 A3027 RMK A01 T10511085  RH  077%=      5-min Rain = 0
KST3 141442Z 19015G21KT M05/M09 A3026 RMK A01 T10511085  RH  077%=      5-min Rain = 0
KST3 141443Z 19016KT M05/M08 A3026 RMK A01 T10511084  RH  077%=      5-min Rain = 0
KST3 141444Z 19015KT M05/M08 A3026 RMK A01 T10511084  RH  077%=      5-min Rain = 0
KST3 141445Z 19012KT M05/M08 A3027 RMK A01 T10501084  RH  077%=      5-min Rain = 0
KST3 141446Z 19013KT M05/M08 A3027 RMK A01 T10501083  RH  077%=      5-min Rain = 0
KST3 141447Z 19014KT M05/M08 A3026 RMK A01 T10491083  RH  077%=      5-min Rain = 0
KST3 141448Z 19013KT M05/M08 A3026 RMK A01 T10491084  RH  077%=      5-min Rain = 0
KST3 141449Z 18013KT M05/M08 A3026 RMK A01 T10491084  RH  077%=      5-min Rain = 0
KST3 141450Z 19015KT M05/M08 A3026 RMK A01 T10491084  RH  076%=      5-min Rain = 0
KST3 141451Z 19014KT M05/M09 A3026 RMK A01 T10491085  RH  076%=      5-min Rain = 0
KST3 141452Z 19014G19KT M05/M09 A3026 RMK A01 T10491085  RH  076%=      5-min Rain = 0
KST3 141453Z 19017KT M05/M09 A3026 RMK A01 T10491085  RH  076%=      5-min Rain = 0
KST3 141454Z 19016KT M05/M09 A3026 RMK A01 T10491085  RH  076%=      5-min Rain = 0
KST3 141455Z 18017KT M05/M09 A3026 RMK A01 T10491085  RH  076%=      5-min Rain = 0
KST3 141456Z 19017KT M05/M08 A3026 RMK A01 T10491084  RH  077%=      5-min Rain = 0
KST3 141457Z 19016KT M05/M08 A3026 RMK A01 T10491083  RH  077%=      5-min Rain = 0
KST3 141458Z 18014KT M05/M08 A3026 RMK A01 T10491083  RH  077%=      5-min Rain = 0
KST3 141459Z 19013KT M05/M08 A3027 RMK A01 T10481082  RH  077%=      5-min Rain = 0
KST3 141500Z 19013KT M05/M08 A3027 RMK A01 T10481083  RH  077%=      5-min Rain = 0
KST3 141501Z 19016KT M05/M08 A3026 RMK A01 T10481083  RH  077%=      5-min Rain = 0
KST3 141502Z 19017KT M05/M08 A3026 RMK A01 T10481082  RH  077%=      5-min Rain = 0
KST3 141503Z 19015KT M05/M08 A3026 RMK A01 T10481081  RH  078%=      5-min Rain = 0
KST3 141504Z 19018KT M05/M08 A3026 RMK A01 T10471080  RH  078%=      5-min Rain = 0
KST3 141505Z 19015KT M05/M08 A3026 RMK A01 T10471080  RH  078%=      5-min Rain = 0
KST3 141506Z 19016G21KT M05/M08 A3026 RMK A01 T10481080  RH  078%=      5-min Rain = 0
KST3 141507Z 19017KT M05/M08 A3026 RMK A01 T10471079  RH  079%=      5-min Rain = 0
KST3 141508Z 18016G21KT M05/M08 A3026 RMK A01 T10471078  RH  079%=      5-min Rain = 0
KST3 141509Z 19016KT M05/M08 A3026 RMK A01 T10461078  RH  079%=      5-min Rain = 0
KST3 141510Z 18019G24KT M05/M08 A3026 RMK A01 T10461078  RH  079%=      5-min Rain = 0
KST3 141511Z 18017KT M05/M08 A3026 RMK A01 T10461078  RH  078%=      5-min Rain = 0
KST3 141512Z 18017KT M05/M08 A3026 RMK A01 T10461078  RH  078%=      5-min Rain = 0
KST3 141513Z 18014KT M05/M08 A3026 RMK A01 T10461078  RH  078%=      5-min Rain = 0
KST3 141514Z 19015KT M05/M08 A3026 RMK A01 T10451077  RH  078%=      5-min Rain = 0
KST3 141515Z 18017KT M05/M08 A3026 RMK A01 T10451078  RH  078%=      5-min Rain = 0
KST3 141516Z 19017KT M05/M08 A3026 RMK A01 T10451078  RH  078%=      5-min Rain = 0
KST3 141517Z 19014KT M05/M08 A3026 RMK A01 T10461079  RH  078%=      5-min Rain = 0
KST3 141518Z 19015G21KT M05/M08 A3026 RMK A01 T10461079  RH  078%=      5-min Rain = 0
KST3 141519Z 18017KT M05/M08 A3026 RMK A01 T10451078  RH  078%=      5-min Rain = 0
KST3 141520Z 19015KT M05/M08 A3026 RMK A01 T10451078  RH  078%=      5-min Rain = 0
KST3 141521Z 18014KT M05/M08 A3026 RMK A01 T10461077  RH  078%=      5-min Rain = 0
KST3 141522Z 18017G22KT M05/M08 A3026 RMK A01 T10451077  RH  078%=      5-min Rain = 0
KST3 141523Z 19018KT M04/M08 A3026 RMK A01 T10441077  RH  078%=      5-min Rain = 0
KST3 141524Z 18014G20KT M05/M08 A3026 RMK A01 T10451077  RH  078%=      5-min Rain = 0
KST3 141525Z 18017KT M04/M08 A3026 RMK A01 T10441076  RH  078%=      5-min Rain = 0
KST3 141526Z 19016KT M05/M08 A3026 RMK A01 T10451077  RH  078%=      5-min Rain = 0
KST3 141527Z 19016KT M05/M08 A3026 RMK A01 T10451077  RH  078%=      5-min Rain = 0
KST3 141528Z 18016KT M05/M08 A3026 RMK A01 T10451077  RH  078%=      5-min Rain = 0
KST3 141529Z 19019KT M04/M08 A3026 RMK A01 T10441076  RH  079%=      5-min Rain = 0
KST3 141530Z 19014KT M04/M08 A3026 RMK A01 T10441075  RH  079%=      5-min Rain = 0
KST3 141531Z 20015KT M04/M08 A3026 RMK A01 T10441075  RH  079%=      5-min Rain = 0
KST3 141532Z 19019KT M04/M08 A3026 RMK A01 T10441075  RH  079%=      5-min Rain = 0
KST3 141533Z 19019G24KT M04/M08 A3026 RMK A01 T10441075  RH  079%=      5-min Rain = 0
KST3 141534Z 19016KT M04/M07 A3026 RMK A01 T10441074  RH  079%=      5-min Rain = 0
KST3 141535Z 19016KT M04/M07 A3026 RMK A01 T10441074  RH  080%=      5-min Rain = 0
KST3 141536Z 19016KT M04/M07 A3026 RMK A01 T10431073  RH  080%=      5-min Rain = 0
KST3 141537Z 19016KT M04/M07 A3026 RMK A01 T10431074  RH  079%=      5-min Rain = 0
KST3 141538Z 18014G19KT M04/M07 A3026 RMK A01 T10431074  RH  079%=      5-min Rain = 0
KST3 141539Z 18013G18KT M04/M07 A3026 RMK A01 T10431074  RH  079%=      5-min Rain = 0
KST3 141540Z 19016KT M04/M07 A3026 RMK A01 T10421074  RH  079%=      5-min Rain = 0
KST3 141541Z 19015KT M04/M07 A3026 RMK A01 T10421074  RH  078%=      5-min Rain = 0
KST3 141542Z 19015G20KT M04/M07 A3026 RMK A01 T10421074  RH  079%=      5-min Rain = 0
KST3 141543Z 19016KT M04/M07 A3026 RMK A01 T10421074  RH  079%=      5-min Rain = 0
KST3 141544Z 19015KT M04/M07 A3026 RMK A01 T10421074  RH  079%=      5-min Rain = 0
KST3 141545Z 19013KT M04/M07 A3026 RMK A01 T10421073  RH  079%=      5-min Rain = 0
KST3 141546Z 19016KT M04/M07 A3026 RMK A01 T10421073  RH  079%=      5-min Rain = 0
KST3 141547Z 19018KT M04/M07 A3026 RMK A01 T10411073  RH  079%=      5-min Rain = 0
KST3 141548Z 19017G22KT M04/M07 A3026 RMK A01 T10421074  RH  078%=      5-min Rain = 0
KST3 141549Z 19018KT M04/M07 A3026 RMK A01 T10421074  RH  079%=      5-min Rain = 0
KST3 141550Z 18015KT M04/M07 A3026 RMK A01 T10421074  RH  079%=      5-min Rain = 0
KST3 141551Z 19018KT M04/M07 A3026 RMK A01 T10421073  RH  079%=      5-min Rain = 0
KST3 141552Z 18016KT M04/M07 A3026 RMK A01 T10421073  RH  079%=      5-min Rain = 0
KST3 141553Z 18016KT M04/M07 A3026 RMK A01 T10421074  RH  079%=      5-min Rain = 0
KST3 141554Z 18017KT M04/M07 A3026 RMK A01 T10421073  RH  079%=      5-min Rain = 0
KST3 141555Z 18015KT M04/M07 A3026 RMK A01 T10421073  RH  079%=      5-min Rain = 0
KST3 141556Z 19016KT M04/M07 A3026 RMK A01 T10421073  RH  079%=      5-min Rain = 0
KST3 141557Z 19016KT M04/M07 A3026 RMK A01 T10421073  RH  079%=      5-min Rain = 0
KST3 141558Z 18016G22KT M04/M07 A3026 RMK A01 T10411072  RH  079%=      5-min Rain = 0
KST3 141559Z 19017G24KT M04/M07 A3025 RMK A01 T10411072  RH  079%=      5-min Rain = 0
KST3 141600Z 19016G23KT M04/M07 A3025 RMK A01 T10411072  RH  079%=      5-min Rain = 0
KST3 141601Z 19018KT M04/M07 A3025 RMK A01 T10411072  RH  079%=      5-min Rain = 0
KST3 141602Z 20016KT M04/M07 A3025 RMK A01 T10411072  RH  079%=      5-min Rain = 0
KST3 141603Z 19016KT M04/M07 A3025 RMK A01 T10411071  RH  079%=      5-min Rain = 0
KST3 141604Z 19017KT M04/M07 A3025 RMK A01 T10401071  RH  079%=      5-min Rain = 0
KST3 141605Z 19016G21KT M04/M07 A3025 RMK A01 T10401071  RH  079%=      5-min Rain = 0
KST3 141606Z 19014KT M04/M07 A3025 RMK A01 T10401071  RH  078%=      5-min Rain = 0
KST3 141607Z 19017KT M04/M07 A3025 RMK A01 T10391071  RH  079%=      5-min Rain = 0
KST3 141608Z 19016KT M04/M07 A3025 RMK A01 T10391071  RH  078%=      5-min Rain = 0
KST3 141609Z 19016KT M04/M07 A3025 RMK A01 T10391071  RH  078%=      5-min Rain = 0
KST3 141610Z 19016KT M04/M07 A3025 RMK A01 T10391071  RH  078%=      5-min Rain = 0
KST3 141611Z 18014KT M04/M07 A3025 RMK A01 T10381071  RH  078%=      5-min Rain = 0
KST3 141612Z 19015KT M04/M07 A3025 RMK A01 T10381071  RH  078%=      5-min Rain = 0
KST3 141613Z 18015KT M04/M07 A3024 RMK A01 T10381071  RH  078%=      5-min Rain = 0
KST3 141614Z 19015G20KT M04/M07 A3024 RMK A01 T10371071  RH  078%=      5-min Rain = 0
KST3 141615Z 19015KT M04/M07 A3024 RMK A01 T10371070  RH  078%=      5-min Rain = 0
KST3 141616Z 19014G19KT M04/M07 A3024 RMK A01 T10361069  RH  078%=      5-min Rain = 0
KST3 141617Z 19015KT M04/M07 A3024 RMK A01 T10361070  RH  077%=      5-min Rain = 0
KST3 141618Z 19015KT M04/M07 A3024 RMK A01 T10361070  RH  077%=      5-min Rain = 0
KST3 141619Z 19019KT M04/M07 A3024 RMK A01 T10361070  RH  077%=      5-min Rain = 0
KST3 141620Z 19018KT M04/M07 A3024 RMK A01 T10361071  RH  077%=      5-min Rain = 0
KST3 141621Z 19016KT M04/M07 A3024 RMK A01 T10361070  RH  077%=      5-min Rain = 0
KST3 141622Z 19016KT M04/M07 A3024 RMK A01 T10351069  RH  077%=      5-min Rain = 0
KST3 141623Z 19018KT M03/M07 A3024 RMK A01 T10341068  RH  077%=      5-min Rain = 0
KST3 141624Z 19018KT M03/M07 A3024 RMK A01 T10341069  RH  077%=      5-min Rain = 0
KST3 141625Z 19017KT M03/M07 A3024 RMK A01 T10341069  RH  077%=      5-min Rain = 0
KST3 141626Z 20015KT M03/M07 A3024 RMK A01 T10341068  RH  077%=      5-min Rain = 0
KST3 141627Z 19013G18KT M03/M07 A3024 RMK A01 T10321066  RH  078%=      5-min Rain = 0
KST3 141628Z 19019KT M03/M07 A3024 RMK A01 T10311065  RH  077%=      5-min Rain = 0
KST3 141629Z 19017KT M03/M07 A3024 RMK A01 T10311066  RH  077%=      5-min Rain = 0
KST3 141630Z 19016KT M03/M07 A3024 RMK A01 T10311066  RH  077%=      5-min Rain = 0
KST3 141631Z 19017KT M03/M07 A3024 RMK A01 T10311065  RH  077%=      5-min Rain = 0
KST3 141632Z 19015KT M03/M07 A3024 RMK A01 T10301065  RH  077%=      5-min Rain = 0
KST3 141633Z 19016G21KT M03/M06 A3024 RMK A01 T10291064  RH  077%=      5-min Rain = 0
KST3 141634Z 19015G20KT M03/M06 A3024 RMK A01 T10291063  RH  077%=      5-min Rain = 0
KST3 141635Z 20019KT M03/M06 A3024 RMK A01 T10281063  RH  077%=      5-min Rain = 0
KST3 141636Z 19017KT M03/M06 A3024 RMK A01 T10281063  RH  077%=      5-min Rain = 0
KST3 141637Z 19017G23KT M03/M06 A3024 RMK A01 T10281062  RH  077%=      5-min Rain = 0
KST3 141638Z 20017KT M03/M06 A3024 RMK A01 T10261060  RH  078%=      5-min Rain = 0
KST3 141639Z 20020KT M03/M06 A3023 RMK A01 T10261060  RH  077%=      5-min Rain = 0
KST3 141640Z 20017KT M03/M06 A3023 RMK A01 T10261061  RH  077%=      5-min Rain = 0
KST3 141641Z 20015G21KT M03/M06 A3024 RMK A01 T10261059  RH  078%=      5-min Rain = 0
KST3 141642Z 19017G22KT M02/M06 A3023 RMK A01 T10241057  RH  078%=      5-min Rain = 0
KST3 141643Z 19016KT M02/M06 A3023 RMK A01 T10231058  RH  077%=      5-min Rain = 0
KST3 141644Z 19019KT M02/M06 A3023 RMK A01 T10231058  RH  077%=      5-min Rain = 0
KST3 141645Z 20018KT M02/M06 A3023 RMK A01 T10241058  RH  077%=      5-min Rain = 0
KST3 141646Z 20018G23KT M02/M06 A3023 RMK A01 T10241058  RH  077%=      5-min Rain = 0
KST3 141647Z 20017KT M02/M06 A3023 RMK A01 T10241058  RH  077%=      5-min Rain = 0
KST3 141648Z 20019KT M02/M06 A3023 RMK A01 T10231057  RH  077%=      5-min Rain = 0
KST3 141649Z 20019KT M02/M06 A3023 RMK A01 T10231057  RH  077%=      5-min Rain = 0
KST3 141650Z 19014KT M02/M06 A3023 RMK A01 T10221057  RH  077%=      5-min Rain = 0
KST3 141651Z 20017KT M02/M06 A3023 RMK A01 T10221056  RH  077%=      5-min Rain = 0
KST3 141652Z 20017KT M02/M06 A3023 RMK A01 T10211055  RH  077%=      5-min Rain = 0
KST3 141653Z 19019G25KT M02/M06 A3023 RMK A01 T10201056  RH  077%=      5-min Rain = 0
KST3 141654Z 20018KT M02/M06 A3023 RMK A01 T10201056  RH  077%=      5-min Rain = 0
KST3 141655Z 19017KT M02/M06 A3023 RMK A01 T10211055  RH  077%=      5-min Rain = 0
KST3 141656Z 20019KT M02/M06 A3023 RMK A01 T10201055  RH  077%=      5-min Rain = 0
KST3 141657Z 20020KT M02/M06 A3023 RMK A01 T10211055  RH  077%=      5-min Rain = 0
KST3 141658Z 20021KT M02/M06 A3023 RMK A01 T10211055  RH  078%=      5-min Rain = 0
KST3 141659Z 20019KT M02/M05 A3023 RMK A01 T10211054  RH  078%=      5-min Rain = 0
KST3 141700Z 20016G21KT M02/M05 A3023 RMK A01 T10201053  RH  078%=      5-min Rain = 0
KST3 141701Z 19015KT M02/M05 A3023 RMK A01 T10191052  RH  078%=      5-min Rain = 0
KST3 141702Z 19015KT M02/M05 A3023 RMK A01 T10171051  RH  077%=      5-min Rain = 0
KST3 141703Z 20019KT M02/M05 A3023 RMK A01 T10161052  RH  077%=      5-min Rain = 0
KST3 141704Z 19016KT M02/M05 A3023 RMK A01 T10171053  RH  076%=      5-min Rain = 0
KST3 141705Z 19017G22KT M02/M05 A3023 RMK A01 T10171053  RH  077%=      5-min Rain = 0
KST3 141706Z 19018G23KT M02/M05 A3023 RMK A01 T10171053  RH  077%=      5-min Rain = 0
KST3 141707Z 19019KT M02/M05 A3023 RMK A01 T10171052  RH  077%=      5-min Rain = 0
KST3 141708Z 19017KT M02/M05 A3023 RMK A01 T10171051  RH  077%=      5-min Rain = 0
KST3 141709Z 19018KT M02/M05 A3023 RMK A01 T10171052  RH  077%=      5-min Rain = 0
KST3 141710Z 19014KT M02/M05 A3023 RMK A01 T10171052  RH  077%=      5-min Rain = 0
KST3 141711Z 19016G22KT M02/M05 A3023 RMK A01 T10161050  RH  077%=      5-min Rain = 0
KST3 141712Z 19018KT M02/M05 A3022 RMK A01 T10161051  RH  077%=      5-min Rain = 0
KST3 141713Z 20017KT M02/M05 A3022 RMK A01 T10161051  RH  077%=      5-min Rain = 0
KST3 141714Z 19019KT M02/M05 A3022 RMK A01 T10151050  RH  077%=      5-min Rain = 0
KST3 141715Z 19018KT M01/M05 A3022 RMK A01 T10141049  RH  077%=      5-min Rain = 0
KST3 141716Z 20019KT M02/M05 A3022 RMK A01 T10151050  RH  077%=      5-min Rain = 0
KST3 141717Z 19020KT M02/M05 A3022 RMK A01 T10151050  RH  077%=      5-min Rain = 0
KST3 141718Z 19019KT M02/M05 A3022 RMK A01 T10151050  RH  077%=      5-min Rain = 0
KST3 141719Z 19016G21KT M02/M05 A3022 RMK A01 T10161050  RH  078%=      5-min Rain = 0
KST3 141720Z 19017G22KT M02/M05 A3022 RMK A01 T10151049  RH  078%=      5-min Rain = 0
KST3 141721Z 19018KT M01/M05 A3022 RMK A01 T10141048  RH  077%=      5-min Rain = 0
KST3 141722Z 19014KT M01/M05 A3022 RMK A01 T10131048  RH  077%=      5-min Rain = 0
KST3 141723Z 19020KT M01/M05 A3022 RMK A01 T10121048  RH  077%=      5-min Rain = 0
KST3 141724Z 19019KT M01/M05 A3022 RMK A01 T10131049  RH  077%=      5-min Rain = 0
KST3 141725Z 20014KT M01/M05 A3022 RMK A01 T10121047  RH  077%=      5-min Rain = 0
KST3 141726Z 19018KT M01/M05 A3021 RMK A01 T10111046  RH  077%=      5-min Rain = 0
KST3 141727Z 19018KT M01/M05 A3021 RMK A01 T10101046  RH  077%=      5-min Rain = 0
KST3 141728Z 19020KT M01/M05 A3021 RMK A01 T10101046  RH  077%=      5-min Rain = 0
KST3 141729Z 19021KT M01/M05 A3021 RMK A01 T10101045  RH  077%=      5-min Rain = 0
KST3 141730Z 20016KT M01/M04 A3021 RMK A01 T10101044  RH  078%=      5-min Rain = 0
KST3 141731Z 20016KT M01/M04 A3021 RMK A01 T10081041  RH  078%=      5-min Rain = 0
KST3 141732Z 19016KT M01/M04 A3021 RMK A01 T10061041  RH  077%=      5-min Rain = 0
KST3 141733Z 20021KT M01/M04 A3021 RMK A01 T10061042  RH  077%=      5-min Rain = 0
KST3 141734Z 20020KT M01/M04 A3021 RMK A01 T10071044  RH  076%=      5-min Rain = 0
KST3 141735Z 19018KT M01/M04 A3021 RMK A01 T10081043  RH  077%=      5-min Rain = 0
KST3 141736Z 19019G25KT M01/M04 A3021 RMK A01 T10071042  RH  077%=      5-min Rain = 0
KST3 141737Z 19015KT M01/M04 A3021 RMK A01 T10071042  RH  077%=      5-min Rain = 0
KST3 141738Z 20018KT M01/M04 A3021 RMK A01 T10051040  RH  077%=      5-min Rain = 0
KST3 141739Z 20016G21KT M00/M04 A3021 RMK A01 T10031039  RH  077%=      5-min Rain = 0
KST3 141740Z 19018KT M00/M04 A3021 RMK A01 T10031040  RH  076%=      5-min Rain = 0
KST3 141741Z 19017KT M00/M04 A3021 RMK A01 T10031041  RH  076%=      5-min Rain = 0
KST3 141742Z 20018KT M00/M04 A3021 RMK A01 T10041041  RH  076%=      5-min Rain = 0
KST3 141743Z 20020KT M00/M04 A3021 RMK A01 T10041040  RH  077%=      5-min Rain = 0
KST3 141744Z 20022KT M01/M04 A3021 RMK A01 T10051041  RH  077%=      5-min Rain = 0
KST3 141745Z 20017G22KT M01/M04 A3021 RMK A01 T10061041  RH  077%=      5-min Rain = 0
KST3 141746Z 19018KT M01/M04 A3021 RMK A01 T10051039  RH  078%=      5-min Rain = 0
KST3 141747Z 19018KT M01/M04 A3021 RMK A01 T10051040  RH  077%=      5-min Rain = 0
KST3 141748Z 19017KT M01/M04 A3021 RMK A01 T10051040  RH  077%=      5-min Rain = 0
KST3 141749Z 20019KT M00/M04 A302 RMK A01 T10041040  RH  077%=      5-min Rain = 0
KST3 141750Z 20019KT M00/M04 A302 RMK A01 T10041039  RH  077%=      5-min Rain = 0
KST3 141751Z 20022KT M00/M04 A302 RMK A01 T10031039  RH  077%=      5-min Rain = 0
KST3 141752Z 20022KT M01/M04 A302 RMK A01 T10051040  RH  077%=      5-min Rain = 0
KST3 141753Z 21020KT M01/M04 A302 RMK A01 T10061040  RH  078%=      5-min Rain = 0
KST3 141754Z 20016G22KT M01/M04 A302 RMK A01 T10061038  RH  079%=      5-min Rain = 0
KST3 141755Z 20019KT M00/M04 A302 RMK A01 T10041037  RH  078%=      5-min Rain = 0
KST3 141756Z 19015KT M00/M04 A302 RMK A01 T10031038  RH  078%=      5-min Rain = 0
KST3 141757Z 19018KT M00/M04 A302 RMK A01 T10031038  RH  077%=      5-min Rain = 0
KST3 141758Z 19018G23KT M01/M04 A302 RMK A01 T10051039  RH  077%=      5-min Rain = 0
KST3 141759Z 19019KT M01/M04 A302 RMK A01 T10061040  RH  078%=      5-min Rain = 0
KST3 141800Z 19022KT M01/M04 A302 RMK A01 T10061040  RH  078%=      5-min Rain = 0
KST3 141801Z 20018KT M01/M04 A302 RMK A01 T10071039  RH  079%=      5-min Rain = 0
KST3 141802Z 19016KT M01/M04 A302 RMK A01 T10061037  RH  079%=      5-min Rain = 0
KST3 141803Z 20016G21KT M00/M04 A302 RMK A01 T10041036  RH  079%=      5-min Rain = 0
KST3 141804Z 20021KT M00/M04 A302 RMK A01 T10031036  RH  078%=      5-min Rain = 0
KST3 141805Z 20022KT M00/M04 A3019 RMK A01 T10031037  RH  078%=      5-min Rain = 0
KST3 141806Z 20020KT M00/M04 A3019 RMK A01 T10041038  RH  078%=      5-min Rain = 0
KST3 141807Z 20020KT M00/M04 A3019 RMK A01 T10041037  RH  079%=      5-min Rain = 0
KST3 141808Z 20018KT M00/M04 A3019 RMK A01 T10031036  RH  079%=      5-min Rain = 0
KST3 141809Z 20016KT M00/M04 A3019 RMK A01 T10031035  RH  079%=      5-min Rain = 0
KST3 141810Z 20019KT M00/M03 A3019 RMK A01 T10011034  RH  079%=      5-min Rain = 0
KST3 141811Z 21019KT 00/03 A3019 RMK A01 T00-00-34  RH  078%=      5-min Rain = 0
KST3 141812Z 20017KT 00/04 A3019 RMK A01 T00-00-35  RH  078%=      5-min Rain = 0
KST3 141813Z 19017KT M00/M04 A3019 RMK A01 T10011035  RH  077%=      5-min Rain = 0
KST3 141814Z 20018KT M00/M04 A3019 RMK A01 T10011035  RH  078%=      5-min Rain = 0
KST3 141815Z 19018KT M00/M04 A3018 RMK A01 T10011035  RH  078%=      5-min Rain = 0
KST3 141816Z 20018KT M00/M04 A3018 RMK A01 T10021035  RH  078%=      5-min Rain = 0
KST3 141817Z 20017KT M00/M03 A3018 RMK A01 T10011034  RH  079%=      5-min Rain = 0
KST3 141818Z 20017G22KT 00/03 A3018 RMK A01 T00-00-32  RH  079%=      5-min Rain = 0
KST3 141819Z 20019KT 00/M03 A3018 RMK A01 T00011032  RH  079%=      5-min Rain = 0
KST3 141820Z 20018KT 00/M03 A3018 RMK A01 T00011032  RH  078%=      5-min Rain = 0
KST3 141821Z 20018KT 00/M03 A3018 RMK A01 T00021031  RH  078%=      5-min Rain = 0
KST3 141822Z 20019KT 00/M03 A3018 RMK A01 T00031030  RH  078%=      5-min Rain = 0
KST3 141823Z 19018KT 00/M03 A3018 RMK A01 T00031030  RH  078%=      5-min Rain = 0
KST3 141824Z 20019KT 00/M03 A3018 RMK A01 T00031030  RH  078%=      5-min Rain = 0
KST3 141825Z 20017KT 00/M03 A3018 RMK A01 T00031029  RH  079%=      5-min Rain = 0
KST3 141826Z 20018KT 00/M03 A3018 RMK A01 T00041029  RH  079%=      5-min Rain = 0
KST3 141827Z 20020KT 00/M03 A3018 RMK A01 T00031029  RH  079%=      5-min Rain = 0
KST3 141828Z 20018KT 00/M03 A3018 RMK A01 T00041029  RH  079%=      5-min Rain = 0
KST3 141829Z 20017G22KT 00/M03 A3018 RMK A01 T00041029  RH  079%=      5-min Rain = 0
KST3 141830Z 20018G23KT 01/M03 A3018 RMK A01 T00061028  RH  078%=      5-min Rain = 0
KST3 141831Z 20018KT 01/M03 A3018 RMK A01 T00061029  RH  078%=      5-min Rain = 0
KST3 141832Z 21019KT 01/M03 A3018 RMK A01 T00061028  RH  078%=      5-min Rain = 0
KST3 141833Z 21018KT 01/M03 A3017 RMK A01 T00071027  RH  078%=      5-min Rain = 0
KST3 141834Z 20017G22KT 01/M03 A3017 RMK A01 T00071027  RH  078%=      5-min Rain = 0
KST3 141835Z 20018KT 01/M03 A3018 RMK A01 T00091026  RH  077%=      5-min Rain = 0
KST3 141836Z 20019KT 01/M03 A3018 RMK A01 T00101027  RH  077%=      5-min Rain = 0
KST3 141837Z 20019KT 01/M03 A3017 RMK A01 T00091028  RH  076%=      5-min Rain = 0
KST3 141838Z 20018KT 01/M03 A3017 RMK A01 T00081028  RH  077%=      5-min Rain = 0
KST3 141839Z 21018KT 01/M03 A3017 RMK A01 T00081028  RH  077%=      5-min Rain = 0
KST3 141840Z 21017G22KT 01/M03 A3017 RMK A01 T00091026  RH  077%=      5-min Rain = 0
KST3 141841Z 21020KT 01/M03 A3017 RMK A01 T00101026  RH  077%=      5-min Rain = 0
KST3 141842Z 21018KT 01/M03 A3017 RMK A01 T00101027  RH  077%=      5-min Rain = 0
KST3 141843Z 19020G26KT 01/M03 A3017 RMK A01 T00101027  RH  077%=      5-min Rain = 0
KST3 141844Z 20019G24KT 01/M03 A3017 RMK A01 T00081028  RH  077%=      5-min Rain = 0
KST3 141845Z 20018KT 01/M03 A3017 RMK A01 T00081027  RH  077%=      5-min Rain = 0
KST3 141846Z 21017G22KT 01/M03 A3017 RMK A01 T00081027  RH  078%=      5-min Rain = 0
KST3 141847Z 20020G25KT 01/M03 A3017 RMK A01 T00091026  RH  077%=      5-min Rain = 0
KST3 141848Z 20020KT 01/M03 A3017 RMK A01 T00091027  RH  077%=      5-min Rain = 0
KST3 141849Z 20018G24KT 01/M03 A3017 RMK A01 T00081027  RH  077%=      5-min Rain = 0
KST3 141850Z 20021KT 01/M03 A3017 RMK A01 T00081027  RH  078%=      5-min Rain = 0
KST3 141851Z 20019G25KT 01/M03 A3017 RMK A01 T00081027  RH  078%=      5-min Rain = 0
KST3 141852Z 21017KT 01/M03 A3017 RMK A01 T00081026  RH  078%=      5-min Rain = 0
KST3 141853Z 21017KT 01/M02 A3017 RMK A01 T00121023  RH  078%=      5-min Rain = 0
KST3 141854Z 22016KT 01/M02 A3016 RMK A01 T00141022  RH  077%=      5-min Rain = 0
KST3 141855Z 21016KT 02/M02 A3016 RMK A01 T00161022  RH  076%=      5-min Rain = 0
KST3 141856Z 21016KT 02/M02 A3016 RMK A01 T00171023  RH  075%=      5-min Rain = 0
KST3 141857Z 21016KT 02/M02 A3016 RMK A01 T00181023  RH  074%=      5-min Rain = 0
KST3 141858Z 21014G19KT 02/M02 A3016 RMK A01 T00191023  RH  074%=      5-min Rain = 0
KST3 141859Z 21015KT 02/M02 A3016 RMK A01 T00201023  RH  073%=      5-min Rain = 0
KST3 141900Z 21017KT 02/M02 A3016 RMK A01 T00191024  RH  073%=      5-min Rain = 0
KST3 141901Z 20015KT 02/M03 A3016 RMK A01 T00171026  RH  073%=      5-min Rain = 0
KST3 141902Z 19014G21KT 02/M02 A3016 RMK A01 T00181024  RH  074%=      5-min Rain = 0
KST3 141903Z 19016KT 02/M03 A3016 RMK A01 T00181025  RH  073%=      5-min Rain = 0
KST3 141904Z 20015KT 02/M03 A3016 RMK A01 T00161026  RH  074%=      5-min Rain = 0
KST3 141905Z 21016KT 02/M02 A3016 RMK A01 T00171024  RH  074%=      5-min Rain = 0
KST3 141906Z 20013KT 02/M02 A3016 RMK A01 T00181024  RH  074%=      5-min Rain = 0
KST3 141907Z 21014G21KT 02/M02 A3016 RMK A01 T00191023  RH  074%=      5-min Rain = 0
KST3 141908Z 20019KT 02/M02 A3016 RMK A01 T00211023  RH  073%=      5-min Rain = 0
KST3 141909Z 20016G21KT 02/M02 A3016 RMK A01 T00191024  RH  073%=      5-min Rain = 0
KST3 141910Z 20017KT 02/M02 A3016 RMK A01 T00191024  RH  073%=      5-min Rain = 0
KST3 141911Z 21015KT 02/M02 A3016 RMK A01 T00181024  RH  074%=      5-min Rain = 0
KST3 141912Z 20016G22KT 02/M02 A3015 RMK A01 T00181023  RH  074%=      5-min Rain = 0
KST3 141913Z 21013KT 02/M02 A3015 RMK A01 T00191023  RH  074%=      5-min Rain = 0
KST3 141914Z 20016KT 02/M02 A3015 RMK A01 T00231019  RH  074%=      5-min Rain = 0
KST3 141915Z 21015KT 03/M02 A3015 RMK A01 T00261019  RH  072%=      5-min Rain = 0
KST3 141916Z 20014G19KT 03/M02 A3015 RMK A01 T00291017  RH  072%=      5-min Rain = 0
KST3 141917Z 20017KT 03/M02 A3015 RMK A01 T00311019  RH  070%=      5-min Rain = 0
KST3 141918Z 21018G23KT 03/M02 A3015 RMK A01 T00291022  RH  069%=      5-min Rain = 0
KST3 141919Z 21019KT 03/M02 A3015 RMK A01 T00261023  RH  070%=      5-min Rain = 0
KST3 141920Z 20020KT 03/M02 A3015 RMK A01 T00261022  RH  071%=      5-min Rain = 0
KST3 141921Z 20021KT 03/M02 A3015 RMK A01 T00261022  RH  071%=      5-min Rain = 0
KST3 141922Z 20015KT 03/M02 A3015 RMK A01 T00251023  RH  071%=      5-min Rain = 0
KST3 141923Z 20018G24KT 03/M02 A3014 RMK A01 T00291018  RH  071%=      5-min Rain = 0
KST3 141924Z 19019KT 03/M02 A3014 RMK A01 T00321018  RH  070%=      5-min Rain = 0
KST3 141925Z 20018G23KT 03/M02 A3014 RMK A01 T00311021  RH  069%=      5-min Rain = 0
KST3 141926Z 21019KT 03/M02 A3014 RMK A01 T00321019  RH  069%=      5-min Rain = 0
KST3 141927Z 20020G25KT 03/M02 A3014 RMK A01 T00331020  RH  068%=      5-min Rain = 0
KST3 141928Z 19022KT 03/M02 A3014 RMK A01 T00291024  RH  068%=      5-min Rain = 0
KST3 141929Z 20020KT 03/M03 A3014 RMK A01 T00251026  RH  069%=      5-min Rain = 0
KST3 141930Z 20017G22KT 02/M02 A3014 RMK A01 T00231024  RH  071%=      5-min Rain = 0
KST3 141931Z 20018G23KT 02/M02 A3014 RMK A01 T00241021  RH  072%=      5-min Rain = 0
KST3 141932Z 20020KT 03/M02 A3014 RMK A01 T00251022  RH  071%=      5-min Rain = 0
KST3 141933Z 20019KT 03/M02 A3014 RMK A01 T00261022  RH  071%=      5-min Rain = 0
KST3 141934Z 20022KT 03/M02 A3013 RMK A01 T00261022  RH  071%=      5-min Rain = 0
KST3 141935Z 20018KT 03/M02 A3013 RMK A01 T00251022  RH  071%=      5-min Rain = 0
KST3 141936Z 20020KT 03/M02 A3013 RMK A01 T00251022  RH  071%=      5-min Rain = 0
KST3 141937Z 20021KT 03/M02 A3013 RMK A01 T00251021  RH  072%=      5-min Rain = 0
KST3 141938Z 20021KT 03/M02 A3013 RMK A01 T00261020  RH  072%=      5-min Rain = 0
KST3 141939Z 20021KT 03/M02 A3013 RMK A01 T00291018  RH  071%=      5-min Rain = 0
KST3 141940Z 20019KT 03/M02 A3013 RMK A01 T00291019  RH  070%=      5-min Rain = 0
KST3 141941Z 20019G24KT 03/M02 A3013 RMK A01 T00291020  RH  070%=      5-min Rain = 0
KST3 141942Z 20018G24KT 03/M02 A3013 RMK A01 T00281020  RH  070%=      5-min Rain = 0
KST3 141943Z 20022KT 03/M02 A3013 RMK A01 T00321016  RH  071%=      5-min Rain = 0
KST3 141944Z 20020G25KT 04/M02 A3013 RMK A01 T00351016  RH  069%=      5-min Rain = 0
KST3 141945Z 20019KT 03/M02 A3012 RMK A01 T00331020  RH  068%=      5-min Rain = 0
KST3 141946Z 20018KT 03/M02 A3012 RMK A01 T00311020  RH  069%=      5-min Rain = 0
KST3 141947Z 20017KT 03/M02 A3012 RMK A01 T00311019  RH  069%=      5-min Rain = 0
KST3 141948Z 21016G24KT 03/M02 A3012 RMK A01 T00321018  RH  069%=      5-min Rain = 0
KST3 141949Z 22022G27KT 04/M02 A3012 RMK A01 T00361015  RH  069%=      5-min Rain = 0
KST3 141950Z 21021KT 04/M02 A3012 RMK A01 T00351019  RH  068%=      5-min Rain = 0
KST3 141951Z 21019KT 03/M02 A3012 RMK A01 T00321020  RH  069%=      5-min Rain = 0
KST3 141952Z 20021G26KT 03/M02 A3012 RMK A01 T00321018  RH  070%=      5-min Rain = 0
KST3 141953Z 21019G27KT 03/M02 A3012 RMK A01 T00341016  RH  069%=      5-min Rain = 0
KST3 141954Z 21021KT 04/M02 A3012 RMK A01 T00361016  RH  069%=      5-min Rain = 0
KST3 141955Z 21018G25KT 04/M02 A3012 RMK A01 T00351018  RH  068%=      5-min Rain = 0
KST3 141956Z 21017KT 03/M02 A3012 RMK A01 T00321020  RH  069%=      5-min Rain = 0
KST3 141957Z 19020KT 03/M02 A3012 RMK A01 T00301021  RH  069%=      5-min Rain = 0
KST3 141958Z 19020KT 03/M02 A3012 RMK A01 T00251024  RH  070%=      5-min Rain = 0
KST3 141959Z 19018G23KT 02/M02 A3012 RMK A01 T00231022  RH  072%=      5-min Rain = 0
KST3 142000Z 20020KT 03/M02 A3012 RMK A01 T00261018  RH  072%=      5-min Rain = 0
KST3 142001Z 20017KT 03/M02 A3012 RMK A01 T00261020  RH  071%=      5-min Rain = 0
KST3 142002Z 20018KT 03/M02 A3011 RMK A01 T00251020  RH  072%=      5-min Rain = 0
KST3 142003Z 21021KT 03/M02 A3011 RMK A01 T00251020  RH  072%=      5-min Rain = 0
KST3 142004Z 20019KT 03/M02 A3011 RMK A01 T00251020  RH  072%=      5-min Rain = 0
KST3 142005Z 20018G24KT 03/M02 A3011 RMK A01 T00251019  RH  073%=      5-min Rain = 0
KST3 142006Z 20017KT 03/M02 A3011 RMK A01 T00251019  RH  073%=      5-min Rain = 0
KST3 142007Z 20016KT 03/M02 A3011 RMK A01 T00261018  RH  073%=      5-min Rain = 0
KST3 142008Z 20020KT 03/M02 A3011 RMK A01 T00281017  RH  072%=      5-min Rain = 0
KST3 142009Z 20021KT 03/M02 A3011 RMK A01 T00261020  RH  071%=      5-min Rain = 0
KST3 142010Z 20018KT 03/M02 A3011 RMK A01 T00251020  RH  072%=      5-min Rain = 0
KST3 142011Z 20018KT 02/M02 A3011 RMK A01 T00241019  RH  073%=      5-min Rain = 0
KST3 142012Z 20016KT 03/M02 A3011 RMK A01 T00261017  RH  073%=      5-min Rain = 0
KST3 142013Z 21017KT 03/M02 A3011 RMK A01 T00281017  RH  073%=      5-min Rain = 0
KST3 142014Z 21017G22KT 03/M02 A3011 RMK A01 T00301015  RH  072%=      5-min Rain = 0
KST3 142015Z 20018KT 03/M02 A3011 RMK A01 T00311016  RH  071%=      5-min Rain = 0
KST3 142016Z 20021KT 03/M02 A3011 RMK A01 T00301018  RH  071%=      5-min Rain = 0
KST3 142017Z 19017KT 03/M02 A3011 RMK A01 T00271020  RH  072%=      5-min Rain = 0
KST3 142018Z 19019G24KT 03/M02 A301 RMK A01 T00261019  RH  072%=      5-min Rain = 0
KST3 142019Z 20018G25KT 03/M02 A301 RMK A01 T00261018  RH  072%=      5-min Rain = 0
KST3 142020Z 20021KT 03/M02 A301 RMK A01 T00271017  RH  072%=      5-min Rain = 0
KST3 142021Z 20019KT 03/M02 A301 RMK A01 T00271019  RH  072%=      5-min Rain = 0
KST3 142022Z 20019KT 03/M02 A301 RMK A01 T00251019  RH  072%=      5-min Rain = 0
KST3 142023Z 20022KT 03/M02 A301 RMK A01 T00251018  RH  073%=      5-min Rain = 0
KST3 142024Z 20018KT 03/M02 A301 RMK A01 T00261018  RH  073%=      5-min Rain = 0
KST3 142025Z 19017G22KT 03/M02 A301 RMK A01 T00261018  RH  073%=      5-min Rain = 0
KST3 142026Z 20017KT 03/M02 A301 RMK A01 T00261018  RH  073%=      5-min Rain = 0
KST3 142027Z 20018KT 03/M02 A301 RMK A01 T00261018  RH  073%=      5-min Rain = 0
KST3 142028Z 19019KT 03/M02 A301 RMK A01 T00261018  RH  073%=      5-min Rain = 0
KST3 142029Z 19017G22KT 03/M02 A301 RMK A01 T00251017  RH  073%=      5-min Rain = 0
KST3 142030Z 20017KT 03/M02 A301 RMK A01 T00261016  RH  074%=      5-min Rain = 0
KST3 142031Z 20015KT 03/M02 A301 RMK A01 T00281016  RH  073%=      5-min Rain = 0
KST3 142032Z 19017KT 03/M02 A301 RMK A01 T00291015  RH  073%=      5-min Rain = 0
KST3 142033Z 19016KT 03/M02 A3009 RMK A01 T00291016  RH  072%=      5-min Rain = 0
KST3 142034Z 19018KT 03/M02 A3009 RMK A01 T00291015  RH  073%=      5-min Rain = 0
KST3 142035Z 19016KT 03/M02 A3009 RMK A01 T00301015  RH  072%=      5-min Rain = 0
KST3 142036Z 19017KT 03/M02 A3009 RMK A01 T00281016  RH  072%=      5-min Rain = 0
KST3 142037Z 19017KT 03/M02 A3009 RMK A01 T00291015  RH  073%=      5-min Rain = 0
KST3 142038Z 18016KT 03/M02 A3009 RMK A01 T00301015  RH  072%=      5-min Rain = 0
KST3 142039Z 19019KT 03/M01 A3009 RMK A01 T00331013  RH  072%=      5-min Rain = 0
KST3 142040Z 20014G19KT 04/M01 A3009 RMK A01 T00391008  RH  071%=      5-min Rain = 0
KST3 142041Z 20015G20KT 05/M01 A3009 RMK A01 T00461005  RH  069%=      5-min Rain = 0
KST3 142042Z 19016KT 05/M01 A3009 RMK A01 T00501008  RH  066%=      5-min Rain = 0
KST3 142043Z 19018KT 05/M01 A3009 RMK A01 T00501011  RH  065%=      5-min Rain = 0
KST3 142044Z 19019KT 05/M01 A3009 RMK A01 T00481013  RH  065%=      5-min Rain = 0
KST3 142045Z 18019KT 05/M01 A3008 RMK A01 T00461014  RH  065%=      5-min Rain = 0
KST3 142046Z 19016KT 05/M01 A3008 RMK A01 T00481012  RH  066%=      5-min Rain = 0
KST3 142047Z 19015KT 05/M01 A3008 RMK A01 T00501011  RH  065%=      5-min Rain = 0
KST3 142048Z 19015KT 05/M01 A3008 RMK A01 T00511010  RH  065%=      5-min Rain = 0
KST3 142049Z 18020KT 05/M01 A3008 RMK A01 T00521011  RH  064%=      5-min Rain = 0
KST3 142050Z 19018KT 05/M01 A3008 RMK A01 T00501013  RH  064%=      5-min Rain = 0
KST3 142051Z 19015G20KT 05/M01 A3008 RMK A01 T00481013  RH  065%=      5-min Rain = 0
KST3 142052Z 20014KT 05/M01 A3008 RMK A01 T00471012  RH  065%=      5-min Rain = 0
KST3 142053Z 18014KT 05/M01 A3008 RMK A01 T00491011  RH  065%=      5-min Rain = 0
KST3 142054Z 19015G20KT 05/M01 A3008 RMK A01 T00471014  RH  065%=      5-min Rain = 0
KST3 142055Z 19018KT 05/M01 A3008 RMK A01 T00451014  RH  065%=      5-min Rain = 0
KST3 142056Z 19016G21KT 04/M02 A3008 RMK A01 T00421015  RH  066%=      5-min Rain = 0
KST3 142057Z 19017KT 04/M01 A3008 RMK A01 T00421014  RH  067%=      5-min Rain = 0
KST3 142058Z 19017G22KT 04/M01 A3007 RMK A01 T00441012  RH  067%=      5-min Rain = 0
KST3 142059Z 19015G21KT 05/M01 A3007 RMK A01 T00471009  RH  067%=      5-min Rain = 0
KST3 142100Z 19018KT 05/M01 A3007 RMK A01 T00511009  RH  065%=      5-min Rain = 0
KST3 142101Z 19018G23KT 05/M01 A3007 RMK A01 T00511011  RH  064%=      5-min Rain = 0
KST3 142102Z 20015G20KT 05/M01 A3007 RMK A01 T00511010  RH  064%=      5-min Rain = 0
KST3 142103Z 18016KT 06/M01 A3007 RMK A01 T00561007  RH  064%=      5-min Rain = 0
KST3 142104Z 19019KT 06/M01 A3007 RMK A01 T00581007  RH  063%=      5-min Rain = 0
KST3 142105Z 19019KT 06/M01 A3007 RMK A01 T00571010  RH  062%=      5-min Rain = 0
KST3 142106Z 19021KT 05/M01 A3007 RMK A01 T00541011  RH  063%=      5-min Rain = 0
KST3 142107Z 20018KT 05/M01 A3007 RMK A01 T00531011  RH  063%=      5-min Rain = 0
KST3 142108Z 19019KT 05/M01 A3007 RMK A01 T00531010  RH  064%=      5-min Rain = 0
KST3 142109Z 19019KT 06/M01 A3007 RMK A01 T00551009  RH  063%=      5-min Rain = 0
KST3 142110Z 20019KT 06/M01 A3007 RMK A01 T00551010  RH  063%=      5-min Rain = 0
KST3 142111Z 20018KT 06/M01 A3007 RMK A01 T00561009  RH  063%=      5-min Rain = 0
KST3 142112Z 18014G19KT 06/M01 A3007 RMK A01 T00561009  RH  063%=      5-min Rain = 0
KST3 142113Z 19020KT 06/M01 A3007 RMK A01 T00581008  RH  062%=      5-min Rain = 0
KST3 142114Z 19019KT 06/M01 A3007 RMK A01 T00581010  RH  062%=      5-min Rain = 0
KST3 142115Z 19020KT 06/M01 A3007 RMK A01 T00561011  RH  062%=      5-min Rain = 0
KST3 142116Z 19021KT 05/M01 A3007 RMK A01 T00541011  RH  063%=      5-min Rain = 0
KST3 142117Z 19021G26KT 05/M01 A3007 RMK A01 T00521011  RH  064%=      5-min Rain = 0
KST3 142118Z 19019KT 05/M01 A3007 RMK A01 T00501011  RH  065%=      5-min Rain = 0
KST3 142119Z 20020G25KT 05/M01 A3007 RMK A01 T00501011  RH  065%=      5-min Rain = 0
KST3 142120Z 19020KT 05/M01 A3007 RMK A01 T00491011  RH  065%=      5-min Rain = 0
KST3 142121Z 19019KT 05/M01 A3006 RMK A01 T00491010  RH  065%=      5-min Rain = 0
KST3 142122Z 19019KT 05/M01 A3006 RMK A01 T00501010  RH  065%=      5-min Rain = 0
KST3 142123Z 19020KT 05/M01 A3006 RMK A01 T00511009  RH  065%=      5-min Rain = 0
KST3 142124Z 20020KT 05/M01 A3006 RMK A01 T00491011  RH  065%=      5-min Rain = 0
KST3 142125Z 19017KT 05/M01 A3007 RMK A01 T00471011  RH  066%=      5-min Rain = 0
KST3 142126Z 19014KT 05/M01 A3007 RMK A01 T00461011  RH  067%=      5-min Rain = 0
KST3 142127Z 18020KT 05/M01 A3006 RMK A01 T00461011  RH  067%=      5-min Rain = 0
KST3 142128Z 18019G24KT 04/M01 A3006 RMK A01 T00441013  RH  067%=      5-min Rain = 0
KST3 142129Z 18018KT 04/M01 A3006 RMK A01 T00421013  RH  068%=      5-min Rain = 0
KST3 142130Z 18017G22KT 04/M01 A3006 RMK A01 T00411012  RH  068%=      5-min Rain = 0
KST3 142131Z 18018KT 04/M01 A3006 RMK A01 T00411012  RH  069%=      5-min Rain = 0
KST3 142132Z 18018KT 04/M01 A3006 RMK A01 T00401012  RH  069%=      5-min Rain = 0
KST3 142133Z 18021G26KT 04/M01 A3006 RMK A01 T00391012  RH  069%=      5-min Rain = 0
KST3 142134Z 18018G23KT 04/M01 A3006 RMK A01 T00381012  RH  070%=      5-min Rain = 0
KST3 142135Z 18020G26KT 04/M01 A3006 RMK A01 T00381012  RH  070%=      5-min Rain = 0
KST3 142136Z 17020KT 04/M01 A3006 RMK A01 T00371012  RH  070%=      5-min Rain = 0
KST3 142137Z 17019G24KT 04/M01 A3005 RMK A01 T00371011  RH  071%=      5-min Rain = 0
KST3 142138Z 18018KT 04/M01 A3005 RMK A01 T00371011  RH  071%=      5-min Rain = 0
KST3 142139Z 18017KT 04/M01 A3006 RMK A01 T00371011  RH  071%=      5-min Rain = 0
KST3 142140Z 19020KT 04/M01 A3005 RMK A01 T00381010  RH  071%=      5-min Rain = 0
KST3 142141Z 19022KT 04/M01 A3005 RMK A01 T00381010  RH  070%=      5-min Rain = 0
KST3 142142Z 19020KT 04/M01 A3005 RMK A01 T00381011  RH  071%=      5-min Rain = 0
KST3 142143Z 19017KT 04/M01 A3005 RMK A01 T00381010  RH  071%=      5-min Rain = 0
KST3 142144Z 19020KT 04/M01 A3005 RMK A01 T00371010  RH  071%=      5-min Rain = 0
KST3 142145Z 19017KT 04/M01 A3005 RMK A01 T00371011  RH  071%=      5-min Rain = 0
KST3 142146Z 18018G24KT 04/M01 A3005 RMK A01 T00371010  RH  071%=      5-min Rain = 0
KST3 142147Z 18021KT 04/M01 A3005 RMK A01 T00371010  RH  071%=      5-min Rain = 0
KST3 142148Z 19021G26KT 04/M01 A3005 RMK A01 T00371011  RH  071%=      5-min Rain = 0
KST3 142149Z 19019KT 04/M01 A3006 RMK A01 T00361011  RH  071%=      5-min Rain = 0
KST3 142150Z 18019KT 04/M01 A3006 RMK A01 T00361011  RH  072%=      5-min Rain = 0
KST3 142151Z 18021G26KT 04/M01 A3006 RMK A01 T00361011  RH  071%=      5-min Rain = 0
KST3 142152Z 18019G24KT 03/M01 A3006 RMK A01 T00341013  RH  072%=      5-min Rain = 0
KST3 142153Z 18018KT 03/M01 A3005 RMK A01 T00341011  RH  072%=      5-min Rain = 0
KST3 142154Z 19017KT 04/M01 A3005 RMK A01 T00361009  RH  072%=      5-min Rain = 0
KST3 142155Z 18019KT 04/M01 A3005 RMK A01 T00371009  RH  072%=      5-min Rain = 0
KST3 142156Z 18021KT 04/M01 A3005 RMK A01 T00381010  RH  071%=      5-min Rain = 0
KST3 142157Z 19019G24KT 04/M01 A3005 RMK A01 T00371010  RH  071%=      5-min Rain = 0
KST3 142158Z 18020KT 04/M01 A3005 RMK A01 T00401007  RH  071%=      5-min Rain = 0
KST3 142159Z 19020KT 04/M01 A3005 RMK A01 T00431007  RH  070%=      5-min Rain = 0
KST3 142200Z 18017KT 05/M01 A3005 RMK A01 T00461006  RH  069%=      5-min Rain = 0
KST3 142201Z 17019KT 05/M01 A3005 RMK A01 T00491006  RH  068%=      5-min Rain = 0
KST3 142202Z 18018G24KT 05/M01 A3005 RMK A01 T00501007  RH  067%=      5-min Rain = 0
KST3 142203Z 18018G23KT 05/M01 A3005 RMK A01 T00501008  RH  066%=      5-min Rain = 0
KST3 142204Z 17018KT 05/M01 A3005 RMK A01 T00491007  RH  067%=      5-min Rain = 0
KST3 142205Z 18018KT 05/M01 A3005 RMK A01 T00511006  RH  066%=      5-min Rain = 0
KST3 142206Z 19020G25KT 05/M01 A3004 RMK A01 T00541005  RH  066%=      5-min Rain = 0
KST3 142207Z 18017G22KT 05/M01 A3004 RMK A01 T00531007  RH  065%=      5-min Rain = 0
KST3 142208Z 18021G27KT 05/M01 A3004 RMK A01 T00531007  RH  065%=      5-min Rain = 0
KST3 142209Z 18021G27KT 05/M01 A3004 RMK A01 T00521008  RH  066%=      5-min Rain = 0
KST3 142210Z 19023G29KT 05/M01 A3004 RMK A01 T00511007  RH  066%=      5-min Rain = 0
KST3 142211Z 19020KT 05/M01 A3004 RMK A01 T00501008  RH  066%=      5-min Rain = 0
KST3 142212Z 18020KT 05/M01 A3004 RMK A01 T00501007  RH  067%=      5-min Rain = 0
KST3 142213Z 19021G27KT 05/M01 A3004 RMK A01 T00501007  RH  067%=      5-min Rain = 0
KST3 142214Z 18017KT 05/M01 A3005 RMK A01 T00521006  RH  066%=      5-min Rain = 0
KST3 142215Z 18021G26KT 05/M01 A3004 RMK A01 T00541005  RH  066%=      5-min Rain = 0
KST3 142216Z 19020G27KT 05/M01 A3004 RMK A01 T00521009  RH  065%=      5-min Rain = 0
KST3 142217Z 19020KT 05/M01 A3004 RMK A01 T00481010  RH  066%=      5-min Rain = 0
KST3 142218Z 18022KT 05/M01 A3004 RMK A01 T00461010  RH  067%=      5-min Rain = 0
KST3 142219Z 18022KT 04/M01 A3004 RMK A01 T00421012  RH  068%=      5-min Rain = 0
KST3 142220Z 18018G24KT 04/M01 A3004 RMK A01 T00401011  RH  069%=      5-min Rain = 0
KST3 142221Z 18018KT 04/M01 A3004 RMK A01 T00401010  RH  070%=      5-min Rain = 0
KST3 142222Z 19017KT 04/M01 A3004 RMK A01 T00401010  RH  070%=      5-min Rain = 0
KST3 142223Z 19018KT 04/M01 A3004 RMK A01 T00411009  RH  070%=      5-min Rain = 0
KST3 142224Z 19015KT 04/M01 A3005 RMK A01 T00421009  RH  070%=      5-min Rain = 0
KST3 142225Z 18015G21KT 04/M01 A3005 RMK A01 T00431008  RH  069%=      5-min Rain = 0
KST3 142226Z 18015KT 04/M01 A3004 RMK A01 T00441008  RH  069%=      5-min Rain = 0
KST3 142227Z 18015KT 05/M01 A3004 RMK A01 T00451008  RH  069%=      5-min Rain = 0
KST3 142228Z 19018KT 05/M01 A3004 RMK A01 T00451008  RH  068%=      5-min Rain = 0
KST3 142229Z 19017KT 04/M01 A3004 RMK A01 T00441009  RH  068%=      5-min Rain = 0
KST3 142230Z 18017G22KT 04/M01 A3004 RMK A01 T00441009  RH  069%=      5-min Rain = 0
KST3 142231Z 19020KT 04/M01 A3004 RMK A01 T00441008  RH  069%=      5-min Rain = 0
KST3 142232Z 19020KT 05/M01 A3004 RMK A01 T00461007  RH  069%=      5-min Rain = 0
KST3 142233Z 18019KT 05/M01 A3004 RMK A01 T00461008  RH  068%=      5-min Rain = 0
KST3 142234Z 18018G23KT 05/M01 A3004 RMK A01 T00451008  RH  069%=      5-min Rain = 0
KST3 142235Z 18018KT 05/M01 A3004 RMK A01 T00461007  RH  069%=      5-min Rain = 0
KST3 142236Z 18020KT 05/M01 A3004 RMK A01 T00461007  RH  068%=      5-min Rain = 0
KST3 142237Z 19020G25KT 05/M01 A3004 RMK A01 T00461007  RH  068%=      5-min Rain = 0
KST3 142238Z 18019G24KT 05/M01 A3004 RMK A01 T00461007  RH  068%=      5-min Rain = 0
KST3 142239Z 18021KT 05/M01 A3003 RMK A01 T00471007  RH  068%=      5-min Rain = 0
KST3 142240Z 18017KT 05/M01 A3004 RMK A01 T00461008  RH  068%=      5-min Rain = 0
KST3 142241Z 18019KT 05/M01 A3004 RMK A01 T00461007  RH  069%=      5-min Rain = 0
KST3 142242Z 18016KT 05/M01 A3004 RMK A01 T00451008  RH  069%=      5-min Rain = 0
KST3 142243Z 18021KT 05/M01 A3004 RMK A01 T00451008  RH  069%=      5-min Rain = 0
KST3 142244Z 18019KT 04/M01 A3004 RMK A01 T00441008  RH  069%=      5-min Rain = 0
KST3 142245Z 17018KT 04/M01 A3004 RMK A01 T00441008  RH  069%=      5-min Rain = 0
KST3 142246Z 18021G26KT 05/M01 A3004 RMK A01 T00451007  RH  069%=      5-min Rain = 0
KST3 142247Z 18019KT 04/M01 A3003 RMK A01 T00431009  RH  069%=      5-min Rain = 0
KST3 142248Z 17022KT 04/M01 A3003 RMK A01 T00431008  RH  069%=      5-min Rain = 0
KST3 142249Z 17020KT 04/M01 A3003 RMK A01 T00431008  RH  069%=      5-min Rain = 0
KST3 142250Z 18019KT 04/M01 A3003 RMK A01 T00431008  RH  070%=      5-min Rain = 0
KST3 142251Z 18021G28KT 04/M01 A3003 RMK A01 T00421008  RH  070%=      5-min Rain = 0
KST3 142252Z 18020KT 04/M01 A3003 RMK A01 T00431008  RH  070%=      5-min Rain = 0
KST3 142253Z 18022KT 04/M01 A3003 RMK A01 T00421008  RH  070%=      5-min Rain = 0
KST3 142254Z 18021KT 04/M01 A3003 RMK A01 T00411009  RH  070%=      5-min Rain = 0
KST3 142255Z 18021G26KT 04/M01 A3003 RMK A01 T00411009  RH  070%=      5-min Rain = 0
KST3 142256Z 18019G24KT 04/M01 A3003 RMK A01 T00401009  RH  071%=      5-min Rain = 0
KST3 142257Z 18021KT 04/M01 A3003 RMK A01 T00401009  RH  071%=      5-min Rain = 0
KST3 142258Z 17022G28KT 04/M01 A3003 RMK A01 T00391009  RH  071%=      5-min Rain = 0
KST3 142259Z 18022KT 04/M01 A3003 RMK A01 T00391009  RH  071%=      5-min Rain = 0
KST3 142300Z 18024KT 04/M01 A3003 RMK A01 T00381009  RH  071%=      5-min Rain = 0
KST3 142301Z 18020KT 04/M01 A3003 RMK A01 T00391008  RH  071%=      5-min Rain = 0
KST3 142302Z 18022G27KT 04/M01 A3003 RMK A01 T00391008  RH  072%=      5-min Rain = 0
KST3 142303Z 19020KT 04/M01 A3003 RMK A01 T00381009  RH  072%=      5-min Rain = 0
KST3 142304Z 18022KT 04/M01 A3003 RMK A01 T00371009  RH  072%=      5-min Rain = 0
KST3 142305Z 19019G26KT 04/M01 A3003 RMK A01 T00371009  RH  072%=      5-min Rain = 0
KST3 142306Z 18022KT 04/M01 A3003 RMK A01 T00371009  RH  072%=      5-min Rain = 0
KST3 142307Z 18020G25KT 04/M01 A3003 RMK A01 T00361009  RH  072%=      5-min Rain = 0
KST3 142308Z 19021G26KT 04/M01 A3003 RMK A01 T00361009  RH  072%=      5-min Rain = 0
KST3 142309Z 19019G24KT 04/M01 A3003 RMK A01 T00351009  RH  073%=      5-min Rain = 0
KST3 142310Z 19024KT 04/M01 A3002 RMK A01 T00351009  RH  073%=      5-min Rain = 0
KST3 142311Z 19022KT 04/M01 A3002 RMK A01 T00351009  RH  073%=      5-min Rain = 0
KST3 142312Z 18020G25KT 03/M01 A3003 RMK A01 T00341009  RH  073%=      5-min Rain = 0
KST3 142313Z 19021G26KT 03/M01 A3002 RMK A01 T00341009  RH  073%=      5-min Rain = 0
KST3 142314Z 18024KT 03/M01 A3002 RMK A01 T00341009  RH  073%=      5-min Rain = 0
KST3 142315Z 19024G29KT 03/M01 A3002 RMK A01 T00331010  RH  074%=      5-min Rain = 0
KST3 142316Z 18021G28KT 03/M01 A3002 RMK A01 T00331009  RH  074%=      5-min Rain = 0
KST3 142317Z 18021G29KT 03/M01 A3002 RMK A01 T00331009  RH  074%=      5-min Rain = 0
KST3 142318Z 19021KT 03/M01 A3002 RMK A01 T00321009  RH  074%=      5-min Rain = 0
KST3 142319Z 18021G27KT 03/M01 A3002 RMK A01 T00321009  RH  075%=      5-min Rain = 0
KST3 142320Z 18022G27KT 03/M01 A3002 RMK A01 T00321009  RH  075%=      5-min Rain = 0
KST3 142321Z 19024G30KT 03/M01 A3002 RMK A01 T00311009  RH  075%=      5-min Rain = 0
KST3 142322Z 19020KT 03/M01 A3002 RMK A01 T00311008  RH  075%=      5-min Rain = 0
KST3 142323Z 19020KT 03/M01 A3002 RMK A01 T00311008  RH  076%=      5-min Rain = 0
KST3 142324Z 19022KT 03/M01 A3002 RMK A01 T00301008  RH  076%=      5-min Rain = 0
KST3 142325Z 19023G28KT 03/M01 A3002 RMK A01 T00301008  RH  076%=      5-min Rain = 0
KST3 142326Z 19022KT 03/M01 A3002 RMK A01 T00301008  RH  076%=      5-min Rain = 0
KST3 142327Z 19022KT 03/M01 A3002 RMK A01 T00301008  RH  076%=      5-min Rain = 0
KST3 142328Z 19022G28KT 03/M01 A3002 RMK A01 T00301008  RH  076%=      5-min Rain = 0
KST3 142329Z 19021KT 03/M01 A3002 RMK A01 T00301007  RH  077%=      5-min Rain = 0
KST3 142330Z 19017KT 03/M01 A3002 RMK A01 T00301007  RH  077%=      5-min Rain = 0
KST3 142331Z 19022G27KT 03/M01 A3002 RMK A01 T00291008  RH  077%=      5-min Rain = 0
KST3 142332Z 19021KT 03/M01 A3002 RMK A01 T00281008  RH  077%=      5-min Rain = 0
KST3 142333Z 18019KT 03/M01 A3002 RMK A01 T00271009  RH  077%=      5-min Rain = 0
KST3 142334Z 19024G29KT 03/M01 A3002 RMK A01 T00261009  RH  078%=      5-min Rain = 0
KST3 142335Z 19022KT 03/M01 A3002 RMK A01 T00261008  RH  078%=      5-min Rain = 0
KST3 142336Z 19023KT 03/M01 A3002 RMK A01 T00251009  RH  078%=      5-min Rain = 0
KST3 142337Z 19024G29KT 03/M01 A3002 RMK A01 T00251009  RH  079%=      5-min Rain = 0
KST3 142338Z 19024G29KT 03/M01 A3002 RMK A01 T00251008  RH  079%=      5-min Rain = 0
KST3 142339Z 18026G31KT 02/M01 A3002 RMK A01 T00241008  RH  079%=      5-min Rain = 0
KST3 142340Z 18020G26KT 02/M01 A3002 RMK A01 T00241008  RH  080%=      5-min Rain = 0
KST3 142341Z 19023KT 02/M01 A3002 RMK A01 T00241007  RH  080%=      5-min Rain = 0
KST3 142342Z 19019KT 03/M01 A3002 RMK A01 T00251007  RH  080%=      5-min Rain = 0
KST3 142343Z 19018KT 03/M01 A3002 RMK A01 T00251007  RH  080%=      5-min Rain = 0
KST3 142344Z 19020G29KT 03/M01 A3002 RMK A01 T00251007  RH  080%=      5-min Rain = 0
KST3 142345Z 19023G30KT 03/M01 A3002 RMK A01 T00251006  RH  080%=      5-min Rain = 0
KST3 142346Z 19024KT 03/M01 A3002 RMK A01 T00251006  RH  080%=      5-min Rain = 0
KST3 142347Z 19023KT 03/M01 A3002 RMK A01 T00251006  RH  080%=      5-min Rain = 0
KST3 142348Z 18024G30KT 03/M01 A3002 RMK A01 T00251006  RH  080%=      5-min Rain = 0
KST3 142349Z 19022G27KT 03/M01 A3002 RMK A01 T00251006  RH  080%=      5-min Rain = 0
KST3 142350Z 18022KT 03/M01 A3001 RMK A01 T00251006  RH  080%=      5-min Rain = 0
KST3 142351Z 18020KT 03/M01 A3001 RMK A01 T00251006  RH  080%=      5-min Rain = 0
KST3 142352Z 19017KT 03/M01 A3001 RMK A01 T00251005  RH  080%=      5-min Rain = 0
KST3 142353Z 19018KT 03/M01 A3001 RMK A01 T00251005  RH  080%=      5-min Rain = 0
KST3 142354Z 19021G27KT 03/M01 A3001 RMK A01 T00251006  RH  080%=      5-min Rain = 0
KST3 142355Z 19022KT 03/M01 A3001 RMK A01 T00251005  RH  080%=      5-min Rain = 0
KST3 142356Z 19023G28KT 03/M01 A3001 RMK A01 T00251006  RH  080%=      5-min Rain = 0
KST3 142357Z 19023G28KT 03/M01 A3001 RMK A01 T00251006  RH  080%=      5-min Rain = 0
KST3 142358Z 19021KT 02/M01 A3001 RMK A01 T00241006  RH  081%=      5-min Rain = 0
KST3 142359Z 19021G27KT 02/M01 A3001 RMK A01 T00241006  RH  081%=      5-min Rain = 0
KST3 150000Z 19024G30KT 02/M01 A3001 RMK A01 T00231006  RH  081%=      5-min Rain = 0
KST3 150001Z 19022G30KT 02/M01 A3001 RMK A01 T00231006  RH  081%=      5-min Rain = 0
KST3 150002Z 19021KT 02/M01 A3001 RMK A01 T00221006  RH  082%=      5-min Rain = 0
KST3 150003Z 19023KT 02/M01 A3001 RMK A01 T00221006  RH  082%=      5-min Rain = 0
KST3 150004Z 19022KT 02/M01 A3001 RMK A01 T00211006  RH  082%=      5-min Rain = 0
KST3 150005Z 19019KT 02/M01 A3001 RMK A01 T00201006  RH  082%=      5-min Rain = 0
KST3 150006Z 18022KT 02/M01 A3001 RMK A01 T00201006  RH  083%=      5-min Rain = 0
KST3 150007Z 18019KT 02/M01 A3001 RMK A01 T00201006  RH  083%=      5-min Rain = 0
KST3 150008Z 19018KT 02/M01 A3001 RMK A01 T00191006  RH  083%=      5-min Rain = 0
KST3 150009Z 19017KT 02/M01 A3001 RMK A01 T00191006  RH  084%=      5-min Rain = 0
KST3 150010Z 19017KT 02/M01 A3001 RMK A01 T00181006  RH  084%=      5-min Rain = 0
KST3 150011Z 19017G23KT 02/M01 A3001 RMK A01 T00181006  RH  084%=      5-min Rain = 0
KST3 150012Z 19021G26KT 02/M01 A3001 RMK A01 T00171006  RH  084%=      5-min Rain = 0
KST3 150013Z 19019KT 02/M01 A3001 RMK A01 T00171006  RH  085%=      5-min Rain = 0
KST3 150014Z 19020KT 02/M01 A3001 RMK A01 T00171006  RH  085%=      5-min Rain = 0
KST3 150015Z 18020KT 02/M01 A3001 RMK A01 T00171006  RH  085%=      5-min Rain = 0
KST3 150016Z 19020KT 02/M01 A3001 RMK A01 T00161006  RH  085%=      5-min Rain = 0
KST3 150017Z 19021KT 02/M01 A3001 RMK A01 T00161006  RH  085%=      5-min Rain = 0
KST3 150018Z 19023G30KT 02/M01 A3001 RMK A01 T00161006  RH  085%=      5-min Rain = 0
KST3 150019Z 19025G31KT 02/M01 A30 RMK A01 T00161006  RH  086%=      5-min Rain = 0
KST3 150020Z 19025G30KT 02/M01 A3001 RMK A01 T00161005  RH  086%=      5-min Rain = 0
KST3 150021Z 19023G28KT 02/M01 A3001 RMK A01 T00151006  RH  086%=      5-min Rain = 0
KST3 150022Z 19022KT 02/M01 A3001 RMK A01 T00151006  RH  086%=      5-min Rain = 0
KST3 150023Z 19021KT 01/M01 A3001 RMK A01 T00141006  RH  086%=      5-min Rain = 0
KST3 150024Z 19022G27KT 01/M01 A3001 RMK A01 T00141006  RH  087%=      5-min Rain = 0
KST3 150025Z 19021KT 01/M01 A3001 RMK A01 T00131006  RH  087%=      5-min Rain = 0
KST3 150026Z 19021KT 01/M01 A3001 RMK A01 T00131006  RH  087%=      5-min Rain = 0
KST3 150027Z 19022KT 01/M01 A3001 RMK A01 T00121006  RH  088%=      5-min Rain = 0
KST3 150028Z 19023KT 01/M01 A30 RMK A01 T00121006  RH  088%=      5-min Rain = 0
KST3 150029Z 19021G26KT 01/M01 A3001 RMK A01 T00121006  RH  088%=      5-min Rain = 0
KST3 150030Z 19019KT 01/M01 A3001 RMK A01 T00121006  RH  088%=      5-min Rain = 0
KST3 150031Z 19019G25KT 01/M01 A3001 RMK A01 T00111006  RH  088%=      5-min Rain = 0
KST3 150032Z 19020KT 01/M01 A3001 RMK A01 T00111006  RH  088%=      5-min Rain = 0
KST3 150033Z 19019KT 01/M01 A3001 RMK A01 T00101006  RH  089%=      5-min Rain = 0
KST3 150034Z 19018KT 01/M01 A3001 RMK A01 T00101006  RH  089%=      5-min Rain = 0
KST3 150035Z 19018G24KT 01/M01 A3001 RMK A01 T00091006  RH  089%=      5-min Rain = 0
KST3 150036Z 19020KT 01/M01 A3001 RMK A01 T00091006  RH  090%=      5-min Rain = 0
KST3 150037Z 19020G25KT 01/M01 A3001 RMK A01 T00091006  RH  090%=      5-min Rain = 0
KST3 150038Z 19021KT 01/M01 A3001 RMK A01 T00091005  RH  090%=      5-min Rain = 0
KST3 150039Z 19023KT 01/M01 A3001 RMK A01 T00091005  RH  090%=      5-min Rain = 0
KST3 150040Z 19022KT 01/M01 A3001 RMK A01 T00101005  RH  090%=      5-min Rain = 0
KST3 150041Z 19021KT 01/M01 A3001 RMK A01 T00101005  RH  090%=      5-min Rain = 0
KST3 150042Z 19021KT 01/M01 A3001 RMK A01 T00101005  RH  090%=      5-min Rain = 0
KST3 150043Z 19019KT 01/M01 A3001 RMK A01 T00101005  RH  090%=      5-min Rain = 0
KST3 150044Z 18021KT 01/M01 A3001 RMK A01 T00091005  RH  090%=      5-min Rain = 0
KST3 150045Z 19019KT 01/M00 A3001 RMK A01 T00091004  RH  091%=      5-min Rain = 0
KST3 150046Z 19018G23KT 01/M01 A3001 RMK A01 T00091005  RH  091%=      5-min Rain = 0
KST3 150047Z 19020KT 01/M00 A3001 RMK A01 T00091004  RH  091%=      5-min Rain = 0
KST3 150048Z 19020KT 01/M00 A30 RMK A01 T00081004  RH  091%=      5-min Rain = 0
KST3 150049Z 19019G24KT 01/M00 A3001 RMK A01 T00081004  RH  092%=      5-min Rain = 0
KST3 150050Z 19019G25KT 01/M00 A30 RMK A01 T00081004  RH  092%=      5-min Rain = 0
KST3 150051Z 19021KT 01/M00 A30 RMK A01 T00081003  RH  092%=      5-min Rain = 0
KST3 150052Z 19021G27KT 01/M00 A30 RMK A01 T00081004  RH  092%=      5-min Rain = 0
KST3 150053Z 19019KT 01/M00 A30 RMK A01 T00081003  RH  092%=      5-min Rain = 0
KST3 150054Z 19022KT 01/M00 A30 RMK A01 T00081003  RH  092%=      5-min Rain = 0
KST3 150055Z 19022KT 01/M00 A30 RMK A01 T00081003  RH  093%=      5-min Rain = 0
KST3 150056Z 19023KT 01/M00 A3001 RMK A01 T00081003  RH  093%=      5-min Rain = 0
KST3 150057Z 19023KT 01/M00 A3001 RMK A01 T00081003  RH  092%=      5-min Rain = 0
KST3 150058Z 19021G26KT 01/M00 A3001 RMK A01 T00081003  RH  092%=      5-min Rain = 0
KST3 150059Z 19020KT 01/M00 A3001 RMK A01 T00081003  RH  093%=      5-min Rain = 0
KST3 150100Z 19021G26KT 01/M00 A3001 RMK A01 T00071003  RH  093%=      5-min Rain = 0
KST3 150101Z 19021G29KT 01/M00 A3001 RMK A01 T00071003  RH  093%=      5-min Rain = 0
KST3 150102Z 19021KT 01/M00 A3001 RMK A01 T00071003  RH  093%=      5-min Rain = 0
KST3 150103Z 19022G29KT 01/M00 A3001 RMK A01 T00071002  RH  093%=      5-min Rain = 0
KST3 150104Z 19024KT 01/M00 A3001 RMK A01 T00081002  RH  093%=      5-min Rain = 0
KST3 150105Z 19021G26KT 01/M00 A3001 RMK A01 T00081001  RH  093%=      5-min Rain = 0
KST3 150106Z 19019KT 01/M00 A3001 RMK A01 T00081002  RH  093%=      5-min Rain = 0
KST3 150107Z 19021KT 01/M00 A3001 RMK A01 T00071003  RH  093%=      5-min Rain = 0
KST3 150108Z 20020G26KT 01/M00 A3001 RMK A01 T00081002  RH  093%=      5-min Rain = 0
KST3 150109Z 19022G28KT 01/M00 A3001 RMK A01 T00071002  RH  094%=      5-min Rain = 0
KST3 150110Z 19022KT 01/M00 A3001 RMK A01 T00071002  RH  094%=      5-min Rain = 0
KST3 150111Z 19023KT 01/M00 A3001 RMK A01 T00071002  RH  094%=      5-min Rain = 0
KST3 150112Z 19022KT 01/M00 A3001 RMK A01 T00071001  RH  094%=      5-min Rain = 0
KST3 150113Z 19019KT 01/M00 A3001 RMK A01 T00071001  RH  094%=      5-min Rain = 0
KST3 150114Z 19020KT 01/M00 A3002 RMK A01 T00071002  RH  094%=      5-min Rain = 0
KST3 150115Z 19021KT 01/M00 A3002 RMK A01 T00071002  RH  094%=      5-min Rain = 0
KST3 150116Z 20019KT 01/M00 A3002 RMK A01 T00071001  RH  094%=      5-min Rain = 0
KST3 150117Z 20022KT 01/M00 A3002 RMK A01 T00071001  RH  094%=      5-min Rain = 0
KST3 150118Z 19021G26KT 01/M00 A3002 RMK A01 T00071001  RH  094%=      5-min Rain = 0
KST3 150119Z 20022KT 01/00 A3002 RMK A01 T000800-0  RH  094%=      5-min Rain = 0
KST3 150120Z 19020KT 01/00 A3002 RMK A01 T000800-0  RH  094%=      5-min Rain = 0
KST3 150121Z 19019KT 01/00 A3002 RMK A01 T000800-0  RH  094%=      5-min Rain = 0
KST3 150122Z 20019KT 01/M00 A3002 RMK A01 T00081001  RH  094%=      5-min Rain = 0
KST3 150123Z 19018KT 01/00 A3002 RMK A01 T000800-0  RH  094%=      5-min Rain = 0
KST3 150124Z 19016KT 01/00 A3002 RMK A01 T000800-0  RH  094%=      5-min Rain = 0
KST3 150125Z 19016KT 01/M00 A3002 RMK A01 T00081001  RH  094%=      5-min Rain = 0
KST3 150126Z 19015KT 01/00 A3002 RMK A01 T000800-0  RH  094%=      5-min Rain = 0
KST3 150127Z 18014KT 01/M00 A3002 RMK A01 T00071001  RH  094%=      5-min Rain = 0
KST3 150128Z 19013KT 01/M00 A3002 RMK A01 T00071001  RH  094%=      5-min Rain = 0
KST3 150129Z 19012KT 01/M00 A3002 RMK A01 T00071001  RH  095%=      5-min Rain = 0
KST3 150130Z 19014KT 01/M00 A3002 RMK A01 T00061001  RH  095%=      5-min Rain = 0
KST3 150131Z 19015KT 01/M00 A3002 RMK A01 T00061001  RH  095%=      5-min Rain = 0
KST3 150132Z 19019KT 01/M00 A3002 RMK A01 T00061001  RH  095%=      5-min Rain = 0
KST3 150133Z 19021KT 01/00 A3002 RMK A01 T00070000  RH  095%=      5-min Rain = 0
KST3 150134Z 19019KT 01/00 A3002 RMK A01 T00070001  RH  095%=      5-min Rain = 0
KST3 150135Z 19021KT 01/00 A3002 RMK A01 T00080001  RH  095%=      5-min Rain = 0
KST3 150136Z 19017G22KT 01/00 A3002 RMK A01 T00080001  RH  095%=      5-min Rain = 0
KST3 150137Z 19019KT 01/00 A3002 RMK A01 T00080001  RH  095%=      5-min Rain = 0
KST3 150138Z 20018KT 01/00 A3002 RMK A01 T00090001  RH  095%=      5-min Rain = 0
KST3 150139Z 19017KT 01/00 A3002 RMK A01 T00090001  RH  095%=      5-min Rain = 0
KST3 150140Z 20016G21KT 01/00 A3002 RMK A01 T00090001  RH  095%=      5-min Rain = 0
KST3 150141Z 20014KT 01/00 A3003 RMK A01 T00090001  RH  095%=      5-min Rain = 0
KST3 150142Z 20013KT 01/00 A3003 RMK A01 T00090001  RH  095%=      5-min Rain = 0
KST3 150143Z 19014KT 01/00 A3003 RMK A01 T00080001  RH  095%=      5-min Rain = 0
KST3 150144Z 20013KT 01/00 A3003 RMK A01 T00080001  RH  095%=      5-min Rain = 0
KST3 150145Z 19014KT 01/00 A3003 RMK A01 T00080001  RH  095%=      5-min Rain = 0
KST3 150146Z 19015KT 01/00 A3003 RMK A01 T00080001  RH  095%=      5-min Rain = 0
KST3 150147Z 20011KT 01/00 A3003 RMK A01 T00080001  RH  095%=      5-min Rain = 0
KST3 150148Z 19011KT 01/00 A3003 RMK A01 T00080001  RH  095%=      5-min Rain = 0
KST3 150149Z 19013G18KT 01/00 A3003 RMK A01 T00080001  RH  095%=      5-min Rain = 0
KST3 150150Z 19011KT 01/00 A3003 RMK A01 T00080001  RH  095%=      5-min Rain = 0
KST3 150151Z 19014G20KT 01/00 A3003 RMK A01 T00070001  RH  095%=      5-min Rain = 0
KST3 150152Z 19015KT 01/00 A3003 RMK A01 T00070001  RH  095%=      5-min Rain = 0
KST3 150153Z 20013KT 01/00 A3003 RMK A01 T00080001  RH  096%=      5-min Rain = 0
KST3 150154Z 19013KT 01/00 A3003 RMK A01 T00070001  RH  095%=      5-min Rain = 0
KST3 150155Z 19015G20KT 01/00 A3002 RMK A01 T00070001  RH  095%=      5-min Rain = 0
KST3 150156Z 19014KT 01/00 A3002 RMK A01 T00070001  RH  095%=      5-min Rain = 0
KST3 150157Z 19016KT 01/00 A3002 RMK A01 T00070001  RH  096%=      5-min Rain = 0
KST3 150158Z 19016KT 01/00 A3002 RMK A01 T00070001  RH  096%=      5-min Rain = 0
KST3 150159Z 19011G17KT 01/00 A3002 RMK A01 T00070001  RH  096%=      5-min Rain = 0
KST3 150200Z 19017KT 01/00 A3002 RMK A01 T00070001  RH  096%=      5-min Rain = 0
KST3 150201Z 19013G19KT 01/00 A3002 RMK A01 T00070001  RH  096%=      5-min Rain = 0
KST3 150202Z 19014KT 01/00 A3002 RMK A01 T00070001  RH  096%=      5-min Rain = 0
KST3 150203Z 19014KT 01/00 A3002 RMK A01 T00070001  RH  096%=      5-min Rain = 0
KST3 150204Z 19016KT 01/00 A3002 RMK A01 T00070001  RH  096%=      5-min Rain = 0
KST3 150205Z 19019KT 01/00 A3002 RMK A01 T00070002  RH  096%=      5-min Rain = 0
KST3 150206Z 20016G23KT 01/00 A3002 RMK A01 T00070002  RH  096%=      5-min Rain = 0
KST3 150207Z 19013KT 01/00 A3003 RMK A01 T00070001  RH  096%=      5-min Rain = 0
KST3 150208Z 19016KT 01/00 A3002 RMK A01 T00070001  RH  096%=      5-min Rain = 0
KST3 150209Z 19013G19KT 01/00 A3003 RMK A01 T00070001  RH  096%=      5-min Rain = 0
KST3 150210Z 20017KT 01/00 A3002 RMK A01 T00070002  RH  096%=      5-min Rain = 0
KST3 150211Z 20016KT 01/00 A3002 RMK A01 T00070002  RH  096%=      5-min Rain = 0
KST3 150212Z 19016G24KT 01/00 A3002 RMK A01 T00070002  RH  096%=      5-min Rain = 0
KST3 150213Z 20016KT 01/00 A3003 RMK A01 T00070002  RH  096%=      5-min Rain = 0
KST3 150214Z 20017G22KT 01/00 A3003 RMK A01 T00070002  RH  096%=      5-min Rain = 0
KST3 150215Z 20015G23KT 01/00 A3003 RMK A01 T00070002  RH  096%=      5-min Rain = 0
KST3 150216Z 20015G21KT 01/00 A3003 RMK A01 T00070002  RH  096%=      5-min Rain = 0
KST3 150217Z 20017G23KT 01/00 A3002 RMK A01 T00070002  RH  096%=      5-min Rain = 0
KST3 150218Z 19018KT 01/00 A3002 RMK A01 T00070002  RH  096%=      5-min Rain = 0
KST3 150219Z 19016KT 01/00 A3002 RMK A01 T00070002  RH  096%=      5-min Rain = 0
KST3 150220Z 19014KT 01/00 A3003 RMK A01 T00080002  RH  096%=      5-min Rain = 0
KST3 150221Z 20017KT 01/00 A3003 RMK A01 T00080002  RH  096%=      5-min Rain = 0
KST3 150222Z 20016KT 01/00 A3003 RMK A01 T00070002  RH  096%=      5-min Rain = 0
KST3 150223Z 20015KT 01/00 A3002 RMK A01 T00070002  RH  096%=      5-min Rain = 0
KST3 150224Z 20017G22KT 01/00 A3002 RMK A01 T00070002  RH  096%=      5-min Rain = 0
KST3 150225Z 19019KT 01/00 A3002 RMK A01 T00070002  RH  096%=      5-min Rain = 0
KST3 150226Z 20019KT 01/00 A3002 RMK A01 T00070002  RH  096%=      5-min Rain = 0
KST3 150227Z 19018G25KT 01/00 A3002 RMK A01 T00070002  RH  096%=      5-min Rain = 0
KST3 150228Z 20018KT 01/00 A3003 RMK A01 T00080002  RH  096%=      5-min Rain = 0
KST3 150229Z 20017G22KT 01/00 A3003 RMK A01 T00080002  RH  096%=      5-min Rain = 0
KST3 150230Z 20018KT 01/00 A3002 RMK A01 T00080003  RH  096%=      5-min Rain = 0
KST3 150231Z 19018KT 01/00 A3003 RMK A01 T00080002  RH  096%=      5-min Rain = 0
KST3 150232Z 19016KT 01/00 A3003 RMK A01 T00080003  RH  096%=      5-min Rain = 0
KST3 150233Z 20015KT 01/00 A3003 RMK A01 T00080003  RH  096%=      5-min Rain = 0
KST3 150234Z 20020KT 01/00 A3002 RMK A01 T00080002  RH  096%=      5-min Rain = 0
KST3 150235Z 20017KT 01/00 A3003 RMK A01 T00080002  RH  096%=      5-min Rain = 0
KST3 150236Z 20016KT 01/00 A3003 RMK A01 T00090003  RH  096%=      5-min Rain = 0
KST3 150237Z 20016KT 01/00 A3003 RMK A01 T00090003  RH  096%=      5-min Rain = 0
KST3 150238Z 20016KT 01/00 A3003 RMK A01 T00090003  RH  096%=      5-min Rain = 0
KST3 150239Z 19018G23KT 01/00 A3003 RMK A01 T00090002  RH  096%=      5-min Rain = 0
KST3 150240Z 20017G22KT 01/00 A3003 RMK A01 T00090003  RH  096%=      5-min Rain = 0
KST3 150241Z 20017KT 01/00 A3003 RMK A01 T00090003  RH  096%=      5-min Rain = 0
KST3 150242Z 19019KT 01/00 A3002 RMK A01 T00080002  RH  096%=      5-min Rain = 0
KST3 150243Z 20018KT 01/00 A3002 RMK A01 T00080002  RH  096%=      5-min Rain = 0
KST3 150244Z 20018KT 01/00 A3002 RMK A01 T00080002  RH  096%=      5-min Rain = 0
KST3 150245Z 20017KT 01/00 A3002 RMK A01 T00080002  RH  096%=      5-min Rain = 0
KST3 150246Z 20016KT 01/00 A3003 RMK A01 T00080002  RH  096%=      5-min Rain = 0
KST3 150247Z 19015KT 01/00 A3003 RMK A01 T00080002  RH  096%=      5-min Rain = 0
KST3 150248Z 20017KT 01/00 A3002 RMK A01 T00080002  RH  096%=      5-min Rain = 0
KST3 150249Z 20017KT 01/00 A3002 RMK A01 T00070002  RH  096%=      5-min Rain = 0
KST3 150250Z 20020G25KT 01/00 A3002 RMK A01 T00070002  RH  096%=      5-min Rain = 0
KST3 150251Z 20019G24KT 01/00 A3002 RMK A01 T00070002  RH  096%=      5-min Rain = 0
KST3 150252Z 20019G25KT 01/00 A3002 RMK A01 T00070002  RH  096%=      5-min Rain = 0
KST3 150253Z 20017G22KT 01/00 A3002 RMK A01 T00070002  RH  096%=      5-min Rain = 0
KST3 150254Z 20020KT 01/00 A3002 RMK A01 T00070002  RH  096%=      5-min Rain = 0
KST3 150255Z 20019G24KT 01/00 A3002 RMK A01 T00070002  RH  096%=      5-min Rain = 0
KST3 150256Z 20020KT 01/00 A3002 RMK A01 T00070002  RH  096%=      5-min Rain = 0
KST3 150257Z 20022KT 01/00 A3002 RMK A01 T00070002  RH  096%=      5-min Rain = 0
KST3 150258Z 20020KT 01/00 A3002 RMK A01 T00070002  RH  096%=      5-min Rain = 0
KST3 150259Z 20022KT 01/00 A3002 RMK A01 T00070002  RH  096%=      5-min Rain = 0
KST3 150300Z 20019KT 01/00 A3002 RMK A01 T00070002  RH  096%=      5-min Rain = 0
KST3 150301Z 20020KT 01/00 A3002 RMK A01 T00070002  RH  096%=      5-min Rain = 0
KST3 150302Z 20017KT 01/00 A3002 RMK A01 T00070002  RH  096%=      5-min Rain = 0
KST3 150303Z 20019G24KT 01/00 A3002 RMK A01 T00070003  RH  097%=      5-min Rain = 0
KST3 150304Z 20021G28KT 01/00 A3002 RMK A01 T00070002  RH  097%=      5-min Rain = 0
KST3 150305Z 20021KT 01/00 A3002 RMK A01 T00080003  RH  097%=      5-min Rain = 0
KST3 150306Z 20019G24KT 01/00 A3002 RMK A01 T00080003  RH  097%=      5-min Rain = 0
KST3 150307Z 20022KT 01/00 A3002 RMK A01 T00080003  RH  097%=      5-min Rain = 0
KST3 150308Z 20022KT 01/00 A3002 RMK A01 T00080003  RH  097%=      5-min Rain = 0
KST3 150309Z 20020G26KT 01/00 A3002 RMK A01 T00080003  RH  097%=      5-min Rain = 0
KST3 150310Z 20023KT 01/00 A3002 RMK A01 T00080003  RH  097%=      5-min Rain = 0
KST3 150311Z 20019KT 01/00 A3002 RMK A01 T00080003  RH  097%=      5-min Rain = 0
KST3 150312Z 20021G26KT 01/00 A3002 RMK A01 T00080003  RH  097%=      5-min Rain = 0
KST3 150313Z 20019KT 01/00 A3002 RMK A01 T00080003  RH  097%=      5-min Rain = 0
KST3 150314Z 20024KT 01/00 A3002 RMK A01 T00090004  RH  097%=      5-min Rain = 0
KST3 150315Z 20020KT 01/00 A3002 RMK A01 T00090004  RH  097%=      5-min Rain = 0
KST3 150316Z 20020KT 01/00 A3002 RMK A01 T00090004  RH  097%=      5-min Rain = 0
KST3 150317Z 21021G27KT 01/00 A3002 RMK A01 T00090004  RH  097%=      5-min Rain = 0
KST3 150318Z 20022KT 01/00 A3002 RMK A01 T00090004  RH  097%=      5-min Rain = 0
KST3 150319Z 21021G26KT 01/00 A3002 RMK A01 T00090004  RH  097%=      5-min Rain = 0
KST3 150320Z 21020G25KT 01/00 A3002 RMK A01 T00090004  RH  097%=      5-min Rain = 0
KST3 150321Z 20020KT 01/00 A3002 RMK A01 T00090004  RH  097%=      5-min Rain = 0
KST3 150322Z 20021KT 01/00 A3002 RMK A01 T00090004  RH  097%=      5-min Rain = 0
KST3 150323Z 20022KT 01/00 A3002 RMK A01 T00090004  RH  097%=      5-min Rain = 0
KST3 150324Z 20021KT 01/00 A3002 RMK A01 T00090004  RH  097%=      5-min Rain = 0
KST3 150325Z 20020G26KT 01/00 A3002 RMK A01 T00080003  RH  097%=      5-min Rain = 0
KST3 150326Z 20022KT 01/00 A3002 RMK A01 T00080003  RH  097%=      5-min Rain = 0
KST3 150327Z 20023KT 01/00 A3002 RMK A01 T00080003  RH  097%=      5-min Rain = 0
KST3 150328Z 20018KT 01/00 A3002 RMK A01 T00070003  RH  097%=      5-min Rain = 0
KST3 150329Z 20021KT 01/00 A3002 RMK A01 T00070003  RH  097%=      5-min Rain = 0
KST3 150330Z 20022G27KT 01/00 A3001 RMK A01 T00070003  RH  097%=      5-min Rain = 0
KST3 150331Z 20020KT 01/00 A3002 RMK A01 T00080004  RH  097%=      5-min Rain = 0
KST3 150332Z 20019KT 01/00 A3001 RMK A01 T00070004  RH  097%=      5-min Rain = 0
KST3 150333Z 20019G24KT 01/00 A3002 RMK A01 T00070003  RH  097%=      5-min Rain = 0
KST3 150334Z 20020G26KT 01/00 A3002 RMK A01 T00070003  RH  097%=      5-min Rain = 0
KST3 150335Z 20021G28KT 01/00 A3001 RMK A01 T00070003  RH  098%=      5-min Rain = 0
KST3 150336Z 20018G23KT 01/00 A3002 RMK A01 T00070004  RH  098%=      5-min Rain = 0
KST3 150337Z 20021G26KT 01/00 A3001 RMK A01 T00070003  RH  098%=      5-min Rain = 0
KST3 150338Z 20022KT 01/00 A3001 RMK A01 T00060003  RH  098%=      5-min Rain = 0
KST3 150339Z 20023KT 01/00 A3001 RMK A01 T00070004  RH  098%=      5-min Rain = 0
KST3 150340Z 20019G24KT 01/00 A3001 RMK A01 T00070004  RH  098%=      5-min Rain = 0
KST3 150341Z 20019KT 01/00 A3001 RMK A01 T00080004  RH  098%=      5-min Rain = 0
KST3 150342Z 20024KT 01/00 A3001 RMK A01 T00070004  RH  098%=      5-min Rain = 0
KST3 150343Z 20020KT 01/00 A3001 RMK A01 T00070004  RH  098%=      5-min Rain = 0
KST3 150344Z 20022G27KT 01/00 A3001 RMK A01 T00070004  RH  098%=      5-min Rain = 0
KST3 150345Z 20022KT 01/00 A3001 RMK A01 T00080004  RH  098%=      5-min Rain = 0
KST3 150346Z 20020KT 01/00 A3001 RMK A01 T00080004  RH  098%=      5-min Rain = 0
KST3 150347Z 20022KT 01/00 A3001 RMK A01 T00070004  RH  098%=      5-min Rain = 0
KST3 150348Z 20022KT 01/00 A3001 RMK A01 T00070004  RH  098%=      5-min Rain = 0
KST3 150349Z 20021KT 01/00 A3001 RMK A01 T00070004  RH  098%=      5-min Rain = 0
KST3 150350Z 20021KT 01/00 A3001 RMK A01 T00070004  RH  098%=      5-min Rain = 0
KST3 150351Z 20022KT 01/00 A3001 RMK A01 T00070004  RH  098%=      5-min Rain = 0
KST3 150352Z 20022KT 01/00 A3001 RMK A01 T00070004  RH  098%=      5-min Rain = 0
KST3 150353Z 20022KT 01/01 A3001 RMK A01 T00070005  RH  098%=      5-min Rain = 0
KST3 150354Z 20021KT 01/00 A3001 RMK A01 T00070004  RH  098%=      5-min Rain = 0
KST3 150355Z 20021KT 01/00 A3001 RMK A01 T00070004  RH  098%=      5-min Rain = 0
KST3 150356Z 20021KT 01/00 A3001 RMK A01 T00070004  RH  098%=      5-min Rain = 0
KST3 150357Z 20020KT 01/00 A3001 RMK A01 T00070004  RH  098%=      5-min Rain = 0
KST3 150358Z 20022KT 01/00 A3001 RMK A01 T00070004  RH  098%=      5-min Rain = 0
KST3 150359Z 20022KT 01/00 A3001 RMK A01 T00070004  RH  098%=      5-min Rain = 0
KST3 150400Z 20021KT 01/01 A3001 RMK A01 T00070005  RH  098%=      5-min Rain = 0
KST3 150401Z 20021KT 01/01 A3001 RMK A01 T00080005  RH  098%=      5-min Rain = 0
KST3 150402Z 20022G27KT 01/01 A3001 RMK A01 T00080005  RH  098%=      5-min Rain = 0
KST3 150403Z 20018KT 01/01 A3001 RMK A01 T00080005  RH  098%=      5-min Rain = 0
KST3 150404Z 20020KT 01/01 A3001 RMK A01 T00080005  RH  098%=      5-min Rain = 0
KST3 150405Z 20020KT 01/01 A3001 RMK A01 T00080005  RH  098%=      5-min Rain = 0
KST3 150406Z 20019KT 01/01 A3002 RMK A01 T00080005  RH  098%=      5-min Rain = 0
KST3 150407Z 20022KT 01/01 A3002 RMK A01 T00070005  RH  098%=      5-min Rain = 0
KST3 150408Z 20016KT 01/01 A3002 RMK A01 T00080006  RH  098%=      5-min Rain = 0
KST3 150409Z 20019KT 01/01 A3002 RMK A01 T00080005  RH  098%=      5-min Rain = 0
KST3 150410Z 21019KT 01/01 A3002 RMK A01 T00080006  RH  098%=      5-min Rain = 0
KST3 150411Z 20020KT 01/01 A3002 RMK A01 T00080006  RH  098%=      5-min Rain = 0
KST3 150412Z 21016KT 01/01 A3002 RMK A01 T00080006  RH  098%=      5-min Rain = 0
KST3 150413Z 21018KT 01/01 A3002 RMK A01 T00080006  RH  098%=      5-min Rain = 0
KST3 150414Z 20018KT 01/01 A3002 RMK A01 T00080006  RH  099%=      5-min Rain = 0
KST3 150415Z 21019KT 01/01 A3002 RMK A01 T00080006  RH  099%=      5-min Rain = 0
KST3 150416Z 20021KT 01/01 A3001 RMK A01 T00080006  RH  099%=      5-min Rain = 0
KST3 150417Z 20021G27KT 01/01 A3001 RMK A01 T00090007  RH  099%=      5-min Rain = 0
KST3 150418Z 20019G25KT 01/01 A3001 RMK A01 T00090007  RH  098%=      5-min Rain = 0
KST3 150419Z 20018G24KT 01/01 A3001 RMK A01 T00090006  RH  098%=      5-min Rain = 0
KST3 150420Z 20020KT 01/01 A3001 RMK A01 T00080006  RH  098%=      5-min Rain = 0
KST3 150421Z 20019G24KT 01/01 A3001 RMK A01 T00080006  RH  098%=      5-min Rain = 0
KST3 150422Z 20019KT 01/01 A3001 RMK A01 T00080006  RH  098%=      5-min Rain = 0
KST3 150423Z 20022G27KT 01/01 A3001 RMK A01 T00080006  RH  099%=      5-min Rain = 0
KST3 150424Z 20024KT 01/01 A3001 RMK A01 T00080006  RH  099%=      5-min Rain = 0
KST3 150425Z 20021KT 01/01 A3001 RMK A01 T00090007  RH  099%=      5-min Rain = 0
KST3 150426Z 20019G24KT 01/01 A3001 RMK A01 T00090006  RH  098%=      5-min Rain = 0
KST3 150427Z 20018KT 01/01 A3001 RMK A01 T00090007  RH  098%=      5-min Rain = 0
KST3 150428Z 20017KT 01/01 A3001 RMK A01 T00090006  RH  098%=      5-min Rain = 0
KST3 150429Z 20018KT 01/01 A3001 RMK A01 T00080006  RH  098%=      5-min Rain = 0
KST3 150430Z 20020KT 01/01 A30 RMK A01 T00080006  RH  099%=      5-min Rain = 0
KST3 150431Z 20019G24KT 01/01 A3001 RMK A01 T00080006  RH  099%=      5-min Rain = 0
KST3 150432Z 20016G22KT 01/01 A3001 RMK A01 T00080006  RH  099%=      5-min Rain = 0
KST3 150433Z 20020G27KT 01/01 A3001 RMK A01 T00080006  RH  099%=      5-min Rain = 0
KST3 150434Z 20021KT 01/01 A3001 RMK A01 T00080007  RH  099%=      5-min Rain = 0
KST3 150435Z 20022G27KT 01/01 A3001 RMK A01 T00090007  RH  099%=      5-min Rain = 0
KST3 150436Z 20021G27KT 01/01 A3001 RMK A01 T00100008  RH  099%=      5-min Rain = 0
KST3 150437Z 20018KT 01/01 A3001 RMK A01 T00100007  RH  098%=      5-min Rain = 0
KST3 150438Z 20019KT 01/01 A3001 RMK A01 T00100007  RH  098%=      5-min Rain = 0
KST3 150439Z 20021KT 01/01 A3001 RMK A01 T00100007  RH  098%=      5-min Rain = 0
KST3 150440Z 20022G28KT 01/01 A30 RMK A01 T00100007  RH  098%=      5-min Rain = 0
KST3 150441Z 20019KT 01/01 A30 RMK A01 T00110008  RH  098%=      5-min Rain = 0
KST3 150442Z 21020KT 01/01 A30 RMK A01 T00110008  RH  098%=      5-min Rain = 0
KST3 150443Z 21020KT 01/01 A30 RMK A01 T00110007  RH  097%=      5-min Rain = 0
KST3 150444Z 21016KT 01/01 A3001 RMK A01 T00110007  RH  097%=      5-min Rain = 0
KST3 150445Z 21021KT 01/01 A3001 RMK A01 T00110007  RH  097%=      5-min Rain = 0
KST3 150446Z 21018KT 01/01 A3001 RMK A01 T00110007  RH  097%=      5-min Rain = 0
KST3 150447Z 21020KT 01/01 A3001 RMK A01 T00110007  RH  097%=      5-min Rain = 0
KST3 150448Z 21021KT 01/01 A3001 RMK A01 T00110007  RH  097%=      5-min Rain = 0
KST3 150449Z 21019KT 01/01 A3001 RMK A01 T00120008  RH  097%=      5-min Rain = 0
KST3 150450Z 21021KT 01/01 A3001 RMK A01 T00110007  RH  097%=      5-min Rain = 0
KST3 150451Z 22020KT 01/01 A3001 RMK A01 T00120008  RH  097%=      5-min Rain = 0
KST3 150452Z 22018G24KT 01/01 A3001 RMK A01 T00120008  RH  097%=      5-min Rain = 0
KST3 150453Z 22020KT 01/01 A3001 RMK A01 T00120007  RH  097%=      5-min Rain = 0
KST3 150454Z 22018KT 01/01 A3001 RMK A01 T00110007  RH  097%=      5-min Rain = 0
KST3 150455Z 22017KT 01/01 A3001 RMK A01 T00120007  RH  097%=      5-min Rain = 0
KST3 150456Z 22020KT 01/01 A3001 RMK A01 T00110007  RH  097%=      5-min Rain = 0
KST3 150457Z 22016G21KT 01/01 A3001 RMK A01 T00120007  RH  097%=      5-min Rain = 0
KST3 150458Z 22018KT 01/01 A3001 RMK A01 T00120007  RH  097%=      5-min Rain = 0
KST3 150459Z 21019KT 01/01 A3001 RMK A01 T00120008  RH  097%=      5-min Rain = 0
KST3 150500Z 22018KT 01/01 A3001 RMK A01 T00130008  RH  097%=      5-min Rain = 0
KST3 150501Z 21019KT 01/01 A3001 RMK A01 T00130008  RH  096%=      5-min Rain = 0
KST3 150502Z 22020KT 01/01 A3001 RMK A01 T00130008  RH  096%=      5-min Rain = 0
KST3 150503Z 22019KT 01/01 A3001 RMK A01 T00140008  RH  096%=      5-min Rain = 0
KST3 150504Z 22018KT 01/01 A3001 RMK A01 T00140008  RH  096%=      5-min Rain = 0
KST3 150505Z 21020KT 01/01 A3001 RMK A01 T00140008  RH  096%=      5-min Rain = 0
KST3 150506Z 21018KT 02/01 A3001 RMK A01 T00150008  RH  096%=      5-min Rain = 0
KST3 150507Z 21015KT 02/01 A3001 RMK A01 T00150008  RH  095%=      5-min Rain = 0
KST3 150508Z 22017KT 01/01 A30 RMK A01 T00140007  RH  095%=      5-min Rain = 0
KST3 150509Z 21016KT 01/01 A30 RMK A01 T00130007  RH  096%=      5-min Rain = 0
KST3 150510Z 21018KT 01/01 A30 RMK A01 T00130007  RH  096%=      5-min Rain = 0
KST3 150511Z 21019KT 01/01 A30 RMK A01 T00130008  RH  096%=      5-min Rain = 0
KST3 150512Z 21019KT 01/01 A30 RMK A01 T00140008  RH  096%=      5-min Rain = 0
KST3 150513Z 21018G23KT 01/01 A30 RMK A01 T00140008  RH  096%=      5-min Rain = 0
KST3 150514Z 21019KT 01/01 A30 RMK A01 T00140008  RH  096%=      5-min Rain = 0
KST3 150515Z 21018KT 02/01 A30 RMK A01 T00150008  RH  095%=      5-min Rain = 0
KST3 150516Z 21017KT 02/01 A30 RMK A01 T00150008  RH  095%=      5-min Rain = 0
KST3 150517Z 21017KT 01/01 A30 RMK A01 T00140008  RH  095%=      5-min Rain = 0
KST3 150518Z 22018G23KT 02/01 A30 RMK A01 T00150008  RH  095%=      5-min Rain = 0
KST3 150519Z 22018KT 02/01 A30 RMK A01 T00150009  RH  095%=      5-min Rain = 0
KST3 150520Z 22016KT 02/01 A30 RMK A01 T00160008  RH  095%=      5-min Rain = 0
KST3 150521Z 22020KT 02/01 A30 RMK A01 T00160008  RH  095%=      5-min Rain = 0
KST3 150522Z 22017KT 02/01 A30 RMK A01 T00170009  RH  095%=      5-min Rain = 0
KST3 150523Z 22018KT 02/01 A30 RMK A01 T00170009  RH  094%=      5-min Rain = 0
KST3 150524Z 22016KT 02/01 A30 RMK A01 T00170009  RH  094%=      5-min Rain = 0
KST3 150525Z 22017KT 02/01 A30 RMK A01 T00170008  RH  094%=      5-min Rain = 0
KST3 150526Z 22017KT 02/01 A30 RMK A01 T00170009  RH  094%=      5-min Rain = 0
KST3 150527Z 21016KT 02/01 A30 RMK A01 T00170008  RH  094%=      5-min Rain = 0
KST3 150528Z 22016KT 02/01 A30 RMK A01 T00170008  RH  094%=      5-min Rain = 0
KST3 150529Z 22017KT 02/01 A30 RMK A01 T00160007  RH  094%=      5-min Rain = 0
KST3 150530Z 22016KT 02/01 A30 RMK A01 T00160008  RH  094%=      5-min Rain = 0
KST3 150531Z 22017KT 02/01 A30 RMK A01 T00170009  RH  095%=      5-min Rain = 0
KST3 150532Z 22016KT 02/01 A30 RMK A01 T00170009  RH  094%=      5-min Rain = 0
KST3 150533Z 22017G22KT 02/01 A30 RMK A01 T00170008  RH  094%=      5-min Rain = 0
KST3 150534Z 22016KT 02/01 A30 RMK A01 T00170009  RH  094%=      5-min Rain = 0
KST3 150535Z 22016KT 02/01 A30 RMK A01 T00170009  RH  094%=      5-min Rain = 0
KST3 150536Z 22018KT 02/01 A30 RMK A01 T00170008  RH  094%=      5-min Rain = 0
KST3 150537Z 22017KT 02/01 A30 RMK A01 T00170009  RH  094%=      5-min Rain = 0
KST3 150538Z 22018KT 02/01 A2999 RMK A01 T00180010  RH  094%=      5-min Rain = 0
KST3 150539Z 22019KT 02/01 A2999 RMK A01 T00200011  RH  094%=      5-min Rain = 0
KST3 150540Z 22018KT 02/01 A30 RMK A01 T00210011  RH  093%=      5-min Rain = 0
KST3 150541Z 22019KT 02/01 A30 RMK A01 T00220011  RH  093%=      5-min Rain = 0
KST3 150542Z 22018KT 02/01 A30 RMK A01 T00220011  RH  093%=      5-min Rain = 0
KST3 150543Z 22018KT 02/01 A30 RMK A01 T00220011  RH  093%=      5-min Rain = 0
KST3 150544Z 22021KT 02/01 A30 RMK A01 T00220011  RH  093%=      5-min Rain = 0
KST3 150545Z 22020KT 02/01 A30 RMK A01 T00230012  RH  092%=      5-min Rain = 0
KST3 150546Z 22021KT 02/01 A30 RMK A01 T00240012  RH  092%=      5-min Rain = 0
KST3 150547Z 22021KT 03/01 A2999 RMK A01 T00250013  RH  092%=      5-min Rain = 0
KST3 150548Z 22020KT 03/01 A2999 RMK A01 T00250013  RH  092%=      5-min Rain = 0
KST3 150549Z 22021KT 03/01 A2999 RMK A01 T00260013  RH  091%=      5-min Rain = 0
KST3 150550Z 22020KT 03/01 A2999 RMK A01 T00260013  RH  091%=      5-min Rain = 0
KST3 150551Z 22020KT 03/01 A2999 RMK A01 T00260013  RH  091%=      5-min Rain = 0
KST3 150552Z 22020KT 03/01 A2999 RMK A01 T00270014  RH  091%=      5-min Rain = 0
KST3 150553Z 22020KT 03/01 A2999 RMK A01 T00270014  RH  091%=      5-min Rain = 0
KST3 150554Z 22022KT 03/01 A2999 RMK A01 T00280014  RH  091%=      5-min Rain = 0
KST3 150555Z 22021KT 03/01 A2999 RMK A01 T00280014  RH  091%=      5-min Rain = 0
KST3 150556Z 22022KT 03/01 A2999 RMK A01 T00290014  RH  090%=      5-min Rain = 0
KST3 150557Z 22021KT 03/02 A2999 RMK A01 T00300015  RH  090%=      5-min Rain = 0
KST3 150558Z 22023KT 03/02 A2999 RMK A01 T00300015  RH  090%=      5-min Rain = 0
KST3 150559Z 22023KT 03/02 A2999 RMK A01 T00300015  RH  090%=      5-min Rain = 0

Page generated in 0.1407 seconds.